Bharatpur
S.No. Kiosk Code Kiosk Name LSP Address Ph. No. Credit Limit Remaining Limit Active / Deactive Creation Date Deactivation Date Prepaid Limit Virtual Limit
1 501 CSC Gopalgarh CSC Vakrangee Bharatpur Rural Village Gopalgarh  Block NAGAR  District BHARATPUR   9983757532  113  600  Active  10-10-2012    0.00 
2 743 CSC Karhi_WRS 2014-Aksh-BHARATPUR Village - Karhi Block - Karhi Dist. - Bharatpur  9461694089  473  Active  07-08-2014    618.22  100.43 
3 744 Vinod Kumar Sharma 2014-Aksh-BHARATPUR chudi market town nagar   Dist. - Bharatpur  9694431183  309  Active  07-08-2014    134.47  258.12 
4 747 CSC Khera_WRS 2014-Aksh-BHARATPUR Village - Khera Block - Nadbai Dist. - Bharatpur  9057975797  850  Active  07-08-2014    88.13  86.09 
5 748 CSC Janoothar_WRS 2014-Aksh-BHARATPUR Village - Janoothar Block - Deeg Dist. Bharatpur  9602813066  380  Active  07-08-2014    125.66  392.26 
6 753 CSC Siras_WRS 2014-Aksh-BHARATPUR Village - Siras Block - Weir Dist. - Bharatpur  7732872541  22  Active  07-08-2014    86.99  253.26 
7 788 Ravi Saini 2014-Aksh-BHARATPUR Near Buis Stand Rarah Tehsil Kumher Dist. Bharatpur  9785056392  373  Active  21-08-2014    200.9  561.00 
8 797 Pavnesh Kumar 2014-Aksh-BHARATPUR Near PNB bank Khanua Teh. Rupwas Dist. Bharatpur  9928771440  27  Active  21-08-2014    201.87  416.40 
9 807 Dinesh Kumar Sharma 2014-Aksh-BHARATPUR Shyam Nagar  Colony Behind Central School Bharatpur  7790898199  4223  Active  22-08-2014    26.51  753.31 
10 810 Nateen Singh 2014-Aksh-BHARATPUR Main Market Old Post  Office Pahari Tehsil  Disst. - Bharatpur  9783715200  227  Active  23-08-2014    13.36  201.31 
11 811 Laxmi Narayan 2014-Aksh-BHARATPUR 760 Kalakar Mohalla Jurahra Tehsil Kaman Disst. - Bharatpur  9982906461  88  Active  23-08-2014    17940.96  275.67 
12 816 Ghanshyam Saini 2014-Aksh-BHARATPUR Main Market Sikri Tehisl - Nagar Disst. - Bharatpur  9785508730  16503  Active  27-08-2014    8.62  1709.06 
13 817 Sher Singh 2014-Aksh-BHARATPUR Hospital Ke Pass Uchchain Road Sear Bharatpur  9828607228  2914  Active  27-08-2014    2059.65  3004.39 
14 818 Rakesh Kumar Sharma 2014-Aksh-BHARATPUR Prince Attachi House Deewan Mohalla  Kaman Bharatpur  9529480001  10000  875  Active  27-08-2014    .39  572.73 
15 819 Ashok Kumar 2014-Aksh-BHARATPUR VPO Bidyari  Tehsil 0 Bayana Bharatpur  9351939397  2024  Active  27-08-2014    5.78  0.54 
16 855 Kamlesh Prasad Sharma 2014-Aksh-BHARATPUR Reliance Medicals Goal Baug road Bharatpur  8104525131  Active  08-09-2014    9.43  71.50 
17 856 Fatte Krishna Gaur 2014-Aksh-BHARATPUR Bus Stand Jurhere  Tehsil - Kaman Disst. - Bharatpur  9649340809  277  Active  08-09-2014    .78  180.52 
18 865 Nakul Raj 2014-Aksh-BHARATPUR Single Window E Sugam Kumher  Dist. Jaipur  9785037811  1365  Active  11-09-2014    23.51  20063.01 
19 895 Meena Devi 2014-Aksh-BHARATPUR Near Court  Deeg Bharatpur  9414584015  10000  8673  Active  16-09-2014    .79  8833.46 
20 897 Mayuri emitra 2014-Aksh-BHARATPUR opposite govt.  hospital weir Bharatpur  9928585402  2489  Active  16-09-2014    43.48  3200.62 
21 898 Mina Devi 2014-Aksh-BHARATPUR BNRGSK Panchayat Samiti DeeG Bharatpur  9829333108  Active  16-09-2014    .45  6456.51 
22 899 Sachin Khandelwal 2014-Aksh-BHARATPUR Near Devi Ram Kachori wala Choburja Market Bharatpur  9461695960  11078  Active  16-09-2014    .57  1924.23 
23 901 Santosh Kumar 2014-Aksh-BHARATPUR Surajmal Nagar Near Center School Bharatpur  9887112441  40000  35647  Active  17-09-2014    6064.79  1021.04 
24 932 Zuber Khan 2014-Aksh-BHARATPUR Cheetha Wali Gali Chaburja Bazar Bharatpur  9462484927  7536  Active  25-09-2014    .5  646.42 
25 933 Ashok Kumar 2014-Aksh-BHARATPUR Mastana Music Center Old Post Office  Bharatpur  9887102523  1206  Active  25-09-2014    7.25  246.54 
26 966 Gulap Khandelwal 2014-Aksh-BHARATPUR Peer Mohalla  kaman Bharatpur  05640250100  40000  8121  Active  09-10-2014    .07  1364.06 
27 982 Manoj sharma 2014-Aksh-BHARATPUR Peer mohalla ward no 17 Kama Kaman Bharatpur  05640-251101  102  Active  13-10-2014    24.89  765.22 
28 999 SUNIL KUMAR 2014-Aksh-BHARATPUR A32 JAWAHAR NAGAR  BHARATPUR   9414303388  1254  Active  22-10-2014    435.51  1017.74 
29 1000 ABHAY KUMAR JAIN 2014-Aksh-BHARATPUR INFRONT OF COURT BKAMAN  BHARATPUR   9875000161  680  Active  22-10-2014    .82  253.48 
30 1002 Vishnu Kumar 2014-Aksh-BHARATPUR Tehsil Campus Bayana  Bharatpur   9672086606  5570  Active  27-10-2014    25.89  10124.76 
31 1003 Suresh Sharma 2014-Aksh-BHARATPUR Tehsil Parisar  Kaman Bharatpur  9413672361  167  Active  27-10-2014    180.15  105.22 
32 1004 RITESH GARG 2014-Aksh-BHARATPUR Teshsil Campus Weir    9509489583  99  Active  27-10-2014    .72  6951.99 
33 1005 Surendra Sharma 2014-Aksh-BHARATPUR Tehsil- Bhusawar Bharatpur- 321406   05643271000  2135  Active  27-10-2014    .62  7934.33 
34 1006 MEENA DEVI 2014-Aksh-BHARATPUR Tehsil Campus Deeg   8058565580  Active  27-10-2014    2724.07  0.00 
35 1008 Deepak Kumar Jain 2014-Aksh-BHARATPUR Tehsil Office Bharatpur    9929929920  5321  Active  27-10-2014    .2  12305.63 
36 1029 Jitendra Kumar 2014-Aksh-BHARATPUR near bank of baroda  bayana Bharatpur  9783283874  19  Active  03-11-2014    .68  114.78 
37 1030 Amit Sharma 2014-Aksh-BHARATPUR Near Railway Station Bharatpur   9461582799  90000  87670  Active  03-11-2014    4255.53  2493.70 
38 1031 Gaurav Sharma 2014-Aksh-BHARATPUR New Santan Dharam  Market Bharatpur  9414375500  40000  8198  Active  03-11-2014    .18  1158.20 
39 1038 Dharam Chand 2014-Aksh-BHARATPUR OLD PAHADI ROAD BILOD STAND KAMAN BHARATPUR    9950659910  511  Active  06-11-2014    285.8  655.93 
40 1046 Sanjeev Kumar Sharma 2014-Aksh-BHARATPUR MUDGAL DIGITAL STUDIO NEW MANDI BHARATPUR    9166944376  105  Active  20-11-2014    .12  87.76 
41 1048 Purshottam 2014-Aksh-BHARATPUR NEAR PANCHAYAT SAMITI ROOPWAS DIST BHARATPUR RAJASTHAN    8058252616  4155  Active  20-11-2014    15853.26  8605.58 
42 1052 Dinesh Kumar Sharma 2014-Aksh-BHARATPUR JAIN MANDIR SE SAMNE PAHADI DIST BHARATPUR    9610107548  4007  Active  21-11-2014    6.92  179.77 
43 1073 Ram Kunwar 2014-Aksh-BHARATPUR MAIN MARKET SATAVADI DIST BHARATPUR RAJASTHAN    9001660241  1052  Active  26-11-2014    38260.43  3598.92 
44 1075 Mayank Jain 2014-Aksh-BHARATPUR NEAR JAIN MANDIR SEWAR ROAD BHARATPUR RAJASTHAN    9166772669  1892  Active  27-11-2014    .95  282.36 
45 1079 Aksh Optifibre 2014-Aksh-BHARATPUR Room No.55  Dist. collectrate  Bharatpur  9414059654  3822  Active  27-11-2014    .17  1048.92 
46 1081 Dharmveer Singh 2014-Aksh-BHARATPUR In front of Santoshi Temple Surajpole Gate Bharatpur  9529040674  10000  22875  Active  27-11-2014    2.58  4701.35 
47 1082 Aksh Rajeev Gandhi Seva Kendra Bharatpur 2014-Aksh-BHARATPUR Bharat Nirmaan Rajeev Gandhi Seva Kendra Bharatpur   9414059654  20000  8159  Active  27-11-2014    46.61  4508.51 
48 1092 Jyoti Sharma 2014-Aksh-BHARATPUR TEHSIL NADBAI BHARATPUR    9024903752  217  Active  01-12-2014    500.33  7288.68 
49 1093 Parwesh Kumar 2014-Aksh-BHARATPUR SHOP NO 1 PNB ATM KE UPAR JAWAHAR NAGAR CIRCLE BHARATPUR RAJASTHAN    8890458315  116  Active  01-12-2014    3.15  9.57 
50 1094 Rajeswari Devi 2014-Aksh-BHARATPUR MAIN MARKET UCHCHAIN TEH ROOPWAS DIST BHARATPUR RAJASTHAN    9887433476  99  Active  01-12-2014    .09  1461.95 
51 1095 Ghanshyam Singhal 2014-Aksh-BHARATPUR BAPU MARKET NAGAT DIST BHARATPUR RAJASTHAN    9983956579  1335  Active  01-12-2014    .25  430.34 
52 1097 Umesh Tiwari 2014-Aksh-BHARATPUR MURWARA ROAD SUBHASH NAGAR BHARATPUR RAJASTHAN    9413300272  430  Active  01-12-2014    7.75  652.44 
53 1098 Vineet Kumar 2014-Aksh-BHARATPUR BIHARI GALI RUDAWAL DIST BHARATPUR RAJASTHAN    9649013300  2048  Active  02-12-2014    389.22  269.26 
54 1099 Parul 2014-Aksh-BHARATPUR KARTAR COLONY NEAR NEW TEHSIL KAMAN BHARATPUR RAJASTHAN    7597755001  65  Active  02-12-2014    1000  1635.65 
55 1105 Aksh Optifibre Limited 2014-Aksh-BHARATPUR BNSK HQ TEHSIL ROOPWAS DISTRICT BHARATPUR     9694420125  692  Active  05-12-2014    3.2  1994.35 
56 1112 Mohit Kumar Gupta 2014-Aksh-BHARATPUR 122 RAJENDRA NAGAR BHARATPUR RAJASTHAN    9414692950  8831  Active  11-12-2014    9.51  1614.13 
57 1113 Durga Prasad 2014-Aksh-BHARATPUR RADHA COLONY, NEAR RADHA BALLABH TEMPLE  KAMAN, BHARATPUR undefined  9829121852  1854  Active  11-12-2014    .1  199.91 
58 1121 Hemant Kumar Garg 2014-Aksh-BHARATPUR SHOP N0 97 NEAR OLD COLLECTARY BHARATPUR    9782505764  4837  Active  17-12-2014    .22  2629.14 
59 1131 Naeem Khan 2014-Aksh-BHARATPUR ANAND NAGAR COLONY BHARATPUR RAJASTHAN    9694946814  11378  Active  19-12-2014    52.87  1280.73 
60 1142 Anil Kumar jindal 2014-Aksh-BHARATPUR In front of Sindhi dharmashala Gate Road  Bharatpur  9694139121  240000  28317  Active  22-12-2014    .03  4429.89 
61 1143 Dilip Kumar Pahadia 2014-Aksh-BHARATPUR Old Anaj Mandi Bhusawar Bharatpur  9875057615  90000  4295  Active  22-12-2014    858.35  860.87 
62 1145 Rama eMitra Centre 2014-Aksh-BHARATPUR Basan Gate Chouraha Bharatpur   9667621874  120000  5102  Active  22-12-2014    .9  3283.45 
63 1146 Gurumeet eMitra 2014-Aksh-BHARATPUR Bizli Ghar Collectrate Road  Bharatpur  05644220610  40000  754  Active  22-12-2014    .86  12495.53 
64 1147 Aditiya emitra kiosk 2014-Aksh-BHARATPUR Near Devi Temple Ranjeet Nagar Bharatpur  9461336851  40000  3210  Active  22-12-2014    .18  3878.69 
65 1148 Jeetendra Emitra Center 2014-Aksh-BHARATPUR Golpura Road, Subhash nagar behind central bus stand Bharatpur  9414893789  90000  1613  Active  22-12-2014    16966.27  2053.12 
66 1150 Lokesh Sharma 2014-Aksh-BHARATPUR Infront of RTO Office Anah Bharatpur  9887959411  90000  635  Active  22-12-2014    1021.88  290.40 
67 1152 Manish emitra Center 2014-Aksh-BHARATPUR Manish emitra center Mahal khas road kila  Bharatpur  9982920850  50000  49431  Active  22-12-2014    3746.2  3555.87 
68 1153 Manoj Chahar 2014-Aksh-BHARATPUR Infornt of MSJ College 23-Geeta Colony  Bharatpur  9680838811  9221  Active  22-12-2014    .29  2094.35 
69 1154 Manoj Khandelwal 2014-Aksh-BHARATPUR Near Kiran Niwas home ke  goverdhan gate  Bharatpur  9783001714  40000  38585  Active  22-12-2014    23.22  2002.14 
70 1155 Manoj emitra Center 2014-Aksh-BHARATPUR Pratap colony Kumer gate Bharatpur  8058079654  3364  Active  22-12-2014    47.54  248.70 
71 1156 Mohit Khandelwal 2014-Aksh-BHARATPUR Chhote Ramji ke samne Kumher  Bharatpur  8875075750  9424  Active  22-12-2014    26.7  1313.68 
72 1157 Narendra kumar Jindal 2014-Aksh-BHARATPUR Behind of ganga Mandir Chohara near Budh ki hat Bharatpur  9414344163  140000  2973  Active  22-12-2014    974.15  2309.52 
73 1158 Paritosh 2014-Aksh-BHARATPUR 28, shoping center  Krishna Nagar Bharatpur  9828102544  10000  6233  Active  22-12-2014    23.22  330.00 
74 1160 Vinay Goyal 2014-Aksh-BHARATPUR Kumher Road Bus Stand ke Samne katra Nadbai Bharatpur  9785615572  90000  2103  Active  22-12-2014    3.54  434.93 
75 1161 Atul Emitra 2014-Aksh-BHARATPUR Gandhi Chowk  Bayana Bharatpur  9414485885  40000  1243  Active  22-12-2014    3.68  1500.59 
76 1162 Banvari Shrama Emitra Bayana 2014-Aksh-BHARATPUR Cachari Road  Bayana Bharatpur  9887241956  1937  Active  22-12-2014    5.56  3367.67 
77 1163 Bhoodev Goyal Emitra Center Nadbai 2014-Aksh-BHARATPUR Near APS School ware House Road nadbai Bharatpur  9024920267  40000  1272  Active  22-12-2014    22.21  428.73 
78 1164 Chandra Shekhar Sharma 2014-Aksh-BHARATPUR Near Panchayat Samiti  Sewar Bharatpur  9782565377  30000  592  Active  22-12-2014    652.17  569.48 
79 1165 Mukesh emitra Center 2014-Aksh-BHARATPUR Near Ghanta Ghar Deeg Bharatpur  9414870877  40000  2884  Active  22-12-2014    24.8  2688.78 
80 1167 Nidhi eMitra Center 2014-Aksh-BHARATPUR Krishna Nagar Bharatpur   9828265217  4650  Active  22-12-2014    987.59  5.50 
81 1169 Rohit eMitra Center 2014-Aksh-BHARATPUR Arya Samaj Road Bharatpur   9252066443  40000  2550  Active  22-12-2014    553.75  930.69 
82 1170 Chankee Arora 2014-Aksh-BHARATPUR Ridhi Sidhi complex infront of thana  Nadbai Bharatpur  9166437449  4939  Active  22-12-2014    .89  1242.92 
83 1172 Deepak Emitra Center 2014-Aksh-BHARATPUR Tehsil parisar ke andar Nagar Bharatpur  9887835434  1700  Active  22-12-2014    740.34  1760.00 
84 1173 Suresh Sharma emitra Center 2014-Aksh-BHARATPUR Near New Tehsil Kaman Bharatpur   9413672361  1680  Active  22-12-2014    3.41  10305.74 
85 1174 Mahesh Sharma 2014-Aksh-BHARATPUR New Road  Deeg Bharatpur  05641220820  90000  15802  Active  22-12-2014    38.35  1797.49 
86 1177 Yatendra Kumar 2014-Aksh-BHARATPUR Nomish Road Bharatpur   9667179064  Active  22-12-2014    55.28  34.10 
87 1178 Deepak Gupta 2014-Aksh-BHARATPUR Middle School Ki Gali Deeg Bharatpur  9887228511  1247  Active  22-12-2014    .97  1861.87 
88 1179 Pramod Singh 2014-Aksh-BHARATPUR Near Saini Mishtan Bhandar Bus stand, Bharatpur   9887764466  90000  123  Active  22-12-2014    3.34  0.00 
89 1180 Lalit Khatri 2014-Aksh-BHARATPUR Near Shamshan Ghat Subhash Colony Bharatpur  9413303004  2321  Active  22-12-2014    71.79  1091.10 
90 1181 Pankaj Jain 2014-Aksh-BHARATPUR Jain Computers Katra Nadbai Bharatpur  05643276714  40000  2338  Active  22-12-2014    5.98  2420.00 
91 1182 Rachna Sharma 2014-Aksh-BHARATPUR Anah Gate Bajariya Bharatpur   9785099684  30000  7706  Active  22-12-2014    .55  693.00 
92 1183 MOHAN LAL GUPTA 2014-Aksh-BHARATPUR MELA GROUND NAGAR NAGAR, BHARATPUR  9928352201  40000  19620  Active  22-12-2014    13943.62  172.17 
93 1185 Deepak Verma 2014-Aksh-BHARATPUR Near P N B Bank Kumher Bharatpur  9887512513  15000  1150  Active  22-12-2014    63.11  736.52 
94 1186 Madan Mohan 2014-Aksh-BHARATPUR New Bust Stand Weir Bharatpur   9468664073  15000  1241  Active  22-12-2014    .48  3921.73 
95 1187 Rakesh Sharma 2014-Aksh-BHARATPUR Madarpur Road Infront of Podar Kothi Bharatpur   9887353542  90000  1108  Active  22-12-2014    2.48  386.20 
96 1188 Neeraj 2014-Aksh-BHARATPUR Super Market  GPF Office Ke Samne Bharatpur  9680702196  40000  218  Active  22-12-2014    .74  721.65 
97 1189 Deepak Raj 2014-Aksh-BHARATPUR 109 Sewar Bazar Sewar Bharatpur  9928328689  10000  26247  Active  22-12-2014    .1  2790.60 
98 1191 Pooja Khandelwal 2014-Aksh-BHARATPUR B 4 Jawahar Nagar Bharatpur   05644220008  1485  Active  22-12-2014    3.06  3406.67 
99 1192 Rupesh Kumar 2014-Aksh-BHARATPUR Ram Singh Ka Nagla Bajariya Bharatpur  9785362498  15000  5026  Active  22-12-2014    6.29  1219.56 
100 1194 Manoj Kumar 2014-Aksh-BHARATPUR Saharai Road Deeg Bharatpur  9983406728  4119  Active  22-12-2014    22.45  2098.53 
101 1195 Ravi Shankar Sharma 2014-Aksh-BHARATPUR Goverdhan Road Deeg Bharatpur  8058568722  10000  3760  Active  22-12-2014    39.8  454.35 
102 1196 Veerendra Singh 2014-Aksh-BHARATPUR Near S.P. Office Bharatpur   9887002112  6731  Active  22-12-2014    436.5  3435.30 
103 1197 Ritvis Cyber World 2014-Aksh-BHARATPUR 475 SPM Nagar Bharatpur   9784648494  1201  Active  22-12-2014    .2  456.83 
104 1199 Sudhir Kumar Sharma 2014-Aksh-BHARATPUR BNRGSK Panchayat Samiti Nadwai  9887982284  521  Active  22-12-2014    1000.03  2923.92 
105 1201 Hitesh Kumar 2014-Aksh-BHARATPUR BNRGSK Panchayat Samiti Kaman  9887242675  15000  525  Active  22-12-2014    .97  3371.31 
106 1202 Honey Saraswat 2014-Aksh-BHARATPUR BNRGSK Panchayat Smiti Bayana  9414942200  200  Active  22-12-2014    9062.67  8474.78 
107 1203 Manvendra 2014-Aksh-BHARATPUR 36, Shopping Center Krishna Nagar Bharatpur   9799348952  1321  Active  22-12-2014    .96  4423.90 
108 1204 Pankaj Yadav 2014-Aksh-BHARATPUR Near Suraj Pole Gate Gopal Garh Bharatpur   9782597856  1994  Active  22-12-2014    144.9  593.04 
109 1207 Rajendra Goyal 2014-Aksh-BHARATPUR Near Power House Bharatpur   9530445152  712  Active  22-12-2014    .14  6118.10 
110 1208 Pradeep Kaushik 2014-Aksh-BHARATPUR Nabab Gali Mathura Gate Bharatpur   9413304237  2171  Active  22-12-2014    2619.21  18.72 
111 1210 Dinesh Kumar Goyal 2014-Aksh-BHARATPUR Sadar Bazar Kaman  Bharatpur   9351721784  2093  Active  22-12-2014    .13  1181.30 
112 1211 Ravi Prakash 2014-Aksh-BHARATPUR Old Sabji Mandi Near Main Post Office Bayana Bharatpur  9460174979  227  Active  22-12-2014    70.97  1057.08 
113 1212 Sushil Shukla 2014-Aksh-BHARATPUR A-12 Ranjeet Nagar Bharatpur   9460012395  6323  Active  22-12-2014    .58  749.18 
114 1213 Hirendra Kumar 2014-Aksh-BHARATPUR Near S.B.I. Bank  Kumhar Gate  Bharatpur  9667153781  Active  22-12-2014    .44  123.63 
115 1215 Praveen Kumar 2014-Aksh-BHARATPUR Infornt of Police Station  Nadbai Bharatpur  9461694089  4081  Active  22-12-2014    79.58  3380.10 
116 1216 Devendra Pal 2014-Aksh-BHARATPUR Kasgang Road Nadabi Bharatpur   9785467573  735  Active  22-12-2014    7.41  1245.63 
117 1217 Arun Kumar Saxena 2014-Aksh-BHARATPUR Near Mahaveer Public School Rundhiya Nagar Bharatpur  9468885839  209  Active  22-12-2014    563.16  256.95 
118 1223 Aksh Optifiber Limited 2014-Aksh-BHARATPUR JILA UDHYOG KENDRA BHARATPUR RAJASTHAN     01412770085  Active  25-12-2014    1116.75  0.00 
119 1230 Aslam 2014-Aksh-BHARATPUR BNRGSK Panchayat Samiti Nagar  9982090666  1415  Active  25-12-2014    .59  9851.60 
120 1255 Ganesh Dutt Mishra 2014-Aksh-BHARATPUR GOPALGHAR BHARATPUR    9680714485  2982  Active  09-01-2015    648.41  446.12 
121 1258 Ram Mohan 2014-Aksh-BHARATPUR ANHA  GATE BAJARIYA BHARATPUR    8387978336  2905  Active  09-01-2015    .13  1357.54 
122 1259 Daniel 2014-Aksh-BHARATPUR OUTSIDE  SURAJ POLE GATE BHARATPUR   9783863436  1334  Active  09-01-2015    .02  516.52 
123 1260 Pankaj Kumar Koli 2014-Aksh-BHARATPUR RAJEEV GNADHI SEVA KENDRA  AKHAIGAR NADBAI BHARATPUR   9785196307  673  Active  09-01-2015    405.95  994.42 
124 1266 Rajkumari Rajora 2014-Aksh-BHARATPUR COMPUTECH COMPUTER CENTER  NEAR KHADHI A SHARAM WEIR DIST BHARATPUR  9001733488  294  Active  10-01-2015    10097.42  332.23 
125 1267 Pavan Kumar 2014-Aksh-BHARATPUR ANHA GATE BAJARIYA BHARATPUR    9414000016  8319  Active  10-01-2015    1083.99  2350.89 
126 1271 Azad Khan 2014-Aksh-BHARATPUR TESHIL CAMPUS NAGAR BHARATPUR    9887712794  707  Active  16-01-2015    12  765.22 
127 1281 JIYA RAHMAN 2014-Aksh-BHARATPUR Jiya rahaman emitra center babu bazar Bhartpur   9829753722  577  Active  20-01-2015    .07  3702.12 
128 1282 Ashok Kumar Sharma 2014-Aksh-BHARATPUR MAIN MARKET NEAR POLICE CHOKI DEEG BHARATPUR    9351329943  491  Active  20-01-2015    275.75  2979.56 
129 1307 Bhupendra Agrawal 2014-Aksh-BHARATPUR AGRAWAL COMPUTER POINT, NEAR AGRAWAL DHARMSHALA   KAMAN BHARATPUR RAJASTHAN   7877030711  125  Active  28-01-2015    104.96  375.91 
130 1310 Naresh Chand Agarwal 2014-Aksh-BHARATPUR MORI CHAR BAGH OPP. EYE HOSPITAL BHARATPUR RAJASTHAN    9414307673  2405  Active  28-01-2015    .02  29.41 
131 1311 Radha Kumari 2014-Aksh-BHARATPUR VILLAGE BANSI PHADPUR TEHSIL RUPBAS BHARATPUR RAJASTHAN    9875003256  63  Active  28-01-2015    50.72  57.39 
132 1317 Bholu Ram Sharma 2014-Aksh-BHARATPUR ATAL SEWA KENDRA AKTA BHARATPUR RAJASTHAN    8058200671  1103  Active  29-01-2015    47.29  1.59 
133 1331 Lalit Mohan 2014-Aksh-BHARATPUR NEAR PNB BANK OLD BYEPASS ROAD NAGAR BHARATPUR RAJASTHAN    9024528958  905  Active  03-02-2015    1470.55  296.52 
134 1332 Praveen Kumar 2014-Aksh-BHARATPUR ATAL SAMPARK KENDRA USRANI KUMHER BHARATPUR RAJASTHAN    9785506082  2537  Active  03-02-2015    43.69  3605.78 
135 1339 Bijendra Singh Gurjar 2014-Aksh-BHARATPUR GANDHI CHAUK BAYANA  BHARATPUR RAJASTHAN   9351950965  5095  Active  04-02-2015    6835.97  291.74 
136 1340 Sanjay Kumar 2014-Aksh-BHARATPUR LAXMAN MANDIR BHARATPUR RAJASTHAN    9414200200  1068  Active  04-02-2015    .3  520.83 
137 1341 Sanjay Kumar Saini 2014-Aksh-BHARATPUR OUT SIDE SOORAJPOL GATE BHARATPUR RAJASTHAN    9529192492  57  Active  04-02-2015    619.78  0.08 
138 1378 Veerendra Kumar 2014-Aksh-BHARATPUR VPO KALSARA TEH BAYANA BHARATPUR RAJASTHAN    9783335317  526  Active  09-02-2015    1101.57  411.88 
139 1389 Rajesh Kumar 2014-Aksh-BHARATPUR KUMHER ROAD NADBAI BHARATPUR RAJASTHAN    9782848895  1623  Active  18-02-2015    19.49  1769.56 
140 1390 Shyam Sundar Gupta 2014-Aksh-BHARATPUR ATAL SEWA KENDRA JANOOTHAR DEEG BHARATPUR RAJASTHAN    00000000000000  Active  18-02-2015    139.61  137.55 
141 1391 Varish 2014-Aksh-BHARATPUR RAJEEV GANDHI KENDRA  GULPARA NAGAR BHARATPUR RAJASTHAN   9772003536  1118  Active  18-02-2015    4.7  20.24 
142 1392 Mausam Khan 2014-Aksh-BHARATPUR RAJEEV GANDHI Kendra Samler Pahari Nagar Bharatpur Rajasthan    8094101616  790  Active  18-02-2015    56.77  0.00 
143 1393 Prateek Singhal 2014-Aksh-BHARATPUR STATE BANK KI GALI  DEEVAN MOHALLA KAMANSTATE BANK KI GALI DEEVAN MOHALLA KAMAN BHARATPUR RAJAS   9529208400  13  Active  18-02-2015    36.86  38.26 
144 1394 Krishan Murari 2014-Aksh-BHARATPUR MADHUR COMPUTERS ANAH GATE BHARATPUR RAJASTHAN    9414376540  248  Active  18-02-2015    .72  2591.70 
145 1395 Shyam Sundar 2014-Aksh-BHARATPUR KISHORI PAYASA MOHALLA KAMAN BHARATPUR RAJASTHAN    8290431006  16  Active  18-02-2015    166.18  0.00 
146 1425 Umesh Chand 2014-Aksh-BHARATPUR ATAL SEWA KENDRA MATUKI TEH. KAMAN DIST BHARATPUR RAJASTHAN    9828130014  1261  Active  27-02-2015    .37  1386.95 
147 1428 Anil Kumar Sharma 2014-Aksh-BHARATPUR KAMLA ROAD BASAN GATE BHARATPURRAJASTHAN    9782505905  371  Active  02-03-2015    .58  332.15 
148 1429 Jagdish Prasad Sharma 2014-Aksh-BHARATPUR NEAR GIRLSSCHOOL PAHARI ROAD KAMAN BHARATPUR RAJASTHAN    05640251351  1543  Active  02-03-2015    .24  726.96 
149 1431 Bharat Singh 2014-Aksh-BHARATPUR ATAL SEWA KENDRA SIRAS TEH. WEIR DIST BHARATPUR RAJASTHAN    9660347923  611  Active  02-03-2015    1002.81  2082.82 
150 1432 Anuj Agarwal 2014-Aksh-BHARATPUR INFRONT OF GOAL GATE ARYA SAMAJ BHARATPUR    9928941555  1230  Active  02-03-2015    100.38  94.46 
151 1433 Daulat Singh 2014-Aksh-BHARATPUR BRIJ NAGAR BHARATPUR RAJASTHAN    9667844838  84  Active  02-03-2015    .58  401.74 
152 1442 Shakir 2014-Aksh-BHARATPUR RAJEEV GANDHI KENDRA KAKRALA NAGAR BHARATPUR RAJASTHAN    9828197456  71  Active  03-03-2015    .09  1.59 
153 1443 Dharmendra Singh 2014-Aksh-BHARATPUR ATAL SEWA KENDRA DAURDA TEHSIL ROOPWAS Bharatpur    9587363073  Active  03-03-2015    3074.05  1483.85 
154 1444 Brij Mohan 2014-Aksh-BHARATPUR ATAL SAMPARK KENDRA KHOH DEEG Bharatpur    9887685567  4959  Active  03-03-2015    9.29  865.65 
155 1451 Aksh Optifibre Limited 2014-Aksh-BHARATPUR BAYANA, PHARASO District- BHARATPUR (Rajasthan    9414377104  2465  Active  11-03-2015    6.02  4.78 
156 1452 Omprakash 2014-Aksh-BHARATPUR BANSI KALAN BUS STAND Teh Sewar Dist Bharatpur Rajasthan    9887493560  293  Active  11-03-2015    .92  1291.08 
157 1453 Hitesh Kumar 2014-Aksh-BHARATPUR SINGLE WINDOW E SUGAM TEHSIL PAHARI DISST BHARATPUR    9251002005  262  Active  12-03-2015    1000.77  9397.97 
158 1455 Yahaya 2014-Aksh-BHARATPUR ATAL SEWA KENDRA NOGAWAN BAMNI TEH KAMAN BHARATPUR RAJASTHAN    9828412828  11  Active  13-03-2015    8.54  71.86 
159 1459 Kuldeep Singh 2014-Aksh-BHARATPUR ATAL SEWA KENDRA GANGROLI TEH. WEIR DIST BHARATPUR    9667234914  4337  Active  16-03-2015    4111.03  841.97 
160 1464 Rekha 2014-Aksh-BHARATPUR Atal Sewa Kendra,Gangroly Weir   8696805758  259  Active  19-03-2015    24.65  1233.91 
161 1465 Jagdish Singh 2014-Aksh-BHARATPUR ATAL SEWA KENDRA CHICHANA    7691036392  6241  Active  19-03-2015    20.4  1059.54 
162 1466 Nyaj Mohammad 2014-Aksh-BHARATPUR Nagar,Fatehpur Kala Fatehpur Kala   9549890604  13  Active  19-03-2015    .73  1126.12 
163 1467 Deepak Singh 2014-Aksh-BHARATPUR ATAL SEWA KENDRA JALALAPUR TEH. NAGAR BHARATPUR    9928319699  34  Active  19-03-2015    10600.24  645.65 
164 1468 Babu Lal 2014-Aksh-BHARATPUR Atal Sewa Kendra,Sihawali Nagar   8239112676  514  Active  19-03-2015    6147.55  586.59 
165 1469 Naresh Kumar Dhadoriya 2014-Aksh-BHARATPUR ATAL SEWA KENDRA ANDHIYARI TEH. RUPBAS Bharatpur    8058984002  225  Active  19-03-2015    3349.47  57.39 
166 1470 Neeraj 2014-Aksh-BHARATPUR ATAL SEWA KENDRA SONGAWN TEH.DEEG    8058222137  3738  Active  19-03-2015    4647.05  358.31 
167 1472 Aksh Optifibre Limited 2014-Aksh-BHARATPUR A.En Office,Old Power House Bharatpur   9887877254  2602  Active  20-03-2015    5.75  2356.20 
168 1478 Lakhan Singh 2014-Aksh-BHARATPUR ATAL SEWA KENDRA BADANGARH TEH. DEEG BHARATPUR    9982665647  60  Active  23-03-2015    633.19  162.61 
169 1479 Dileep Kumar Sharma 2014-Aksh-BHARATPUR ATAL SEWA KENDRA NAROLI     7568593912  35  Active  23-03-2015    .24  1.54 
170 1505 Pushapendra Kumar Sharma 2014-Aksh-BHARATPUR ATAL SEWA KENDRA PICHUNA     9694806607  342  Active  25-03-2015    1000.98  878.03 
171 1506 Brijmohan Singh Maggo 2014-Aksh-BHARATPUR ANAH GATE BAJARIYA BHARATPUR Rajasthan    7615801777  1959  Active  25-03-2015    .55  784.35 
172 1507 Gurmeet Singh 2014-Aksh-BHARATPUR WARD N0 24 GOLBAG ROAD MATHURA GATE BHARATPUR    9587000115  1977  Active  25-03-2015    253.15  1033.10 
173 1508 Ajeet Singh 2014-Aksh-BHARATPUR ATAL SEWA KENDRA PATHENA THE. WEIR BHARATPUR RAJASTHAN    9887515038  108  Active  25-03-2015    5.37  1974.98 
174 1509 Vishnu Kumar Gupta 2014-Aksh-BHARATPUR ATAL SEVA KENDRA RARAH    9950780243  Active  25-03-2015    .24  133.91 
175 1510 Radhe Shyam Rajpoot 2014-Aksh-BHARATPUR ATAL SEWA KENDRA GOGERA TEH .BHUSAWAR    9413837008  760  Active  25-03-2015    5844.58  425.65 
176 1795 Hari Mohan 2014-Aksh-BHARATPUR ATAL SEWA KENDRA UBAR TEH KUMHER BHARATPUR    7023396261  14  Active  06-04-2015    50.97  160.53 
177 1798 Lokesh Kumar 2014-Aksh-BHARATPUR ATAL SEWA KENDRA KHESTI    9024062105  183  Active  06-04-2015    4524.48  1501.74 
178 1799 Harnam Singh 2014-Aksh-BHARATPUR ATAL SEWA KENDRA SADHPURI TEH. NAGAR    8502807926  180  Active  06-04-2015    13423.17  267.83 
179 1819 Harmeet Singh 2014-Aksh-BHARATPUR ATAL SEWA KENDRA BASBURJA TEH. NAGAR Bharatpur    8426020062  15704  Active  11-04-2015    16970.53  593.04 
180 1822 Yashwant Singh 2014-Aksh-BHARATPUR VILLAGE POST PATHENA BABEKHAR TEH.BHUSAWAR BHARATPUR    9413027496  246  Active  11-04-2015    1309.18  788.32 
181 1823 Gaurav Agrawal 2014-Aksh-BHARATPUR 29 STC HOUSING BOARD COLONEY BHARATPUR    9680399300  21  Active  11-04-2015    42.96  528.00 
182 1824 Veerendra Singh 2014-Aksh-BHARATPUR POST GOPALGARH THESIL PAHARI Bharatpur    9461623407  Active  11-04-2015    12.48  40.42 
183 1825 Bhavnesh Kumar 2014-Aksh-BHARATPUR ATAL SEWA KENDRA JAHANGEERPUR TEH.NADBAI Bharatpur Rajasthan    8426924549  86  Active  11-04-2015    313.9  102.60 
184 1826 Tufail Khan 2014-Aksh-BHARATPUR ATAL SEWAKENDRA GHOSINGA TEH. PAHARI    8058533192  2710  Active  11-04-2015    329.98  119.76 
185 1827 Samay Singh 2014-Aksh-BHARATPUR ATAL SEWA KENDRA DHADHAIN TEH BAYANA    9950486489  71  Active  11-04-2015    13.21  205.08 
186 1828 Khem Singh 2014-Aksh-BHARATPUR ATAL SEWA KENDRA ODELGADDI TEH,RUPWAS    9672333434  330  Active  11-04-2015    25310.42  0.00 
187 1829 Chandra Sekhar Sharma 2014-Aksh-BHARATPUR ATAL SEWA KENDRA SHEESHWADA TEH. DEEG    9672327226  8416  Active  11-04-2015    192.21  81.30 
188 1830 Yashpal Singh 2014-Aksh-BHARATPUR ATAL SEWA KENDRA SALEMPUR KALAN TEH.BHUSAWAR    7891508503  102  Active  11-04-2015    23.15  557.65 
189 1879 Harish Chand 2014-Aksh-BHARATPUR SURAJ BAGH COLONY KAMAN BHARATPUR    9460963151  327  Active  15-04-2015    .57  283.93 
190 1924 Pavan Kumar 2014-Aksh-BHARATPUR ATAL SEWA KENDRA MAHMADPURA THE. BAYANA Bharatpur Rajasthan    9785300376  21832  Active  17-04-2015    508.59  532.97 
191 1925 Surendra Singh 2014-Aksh-BHARATPUR ATAL SEWA KENDRA BHARAMDA THE. NADBAI Bharatpur Rajasthan    9680480465  Active  17-04-2015    1710.74  4.90 
192 1936 Nadeem 2014-Aksh-BHARATPUR ANAJ MANDI KE SAMNE  KOSI ROAD KAMAN Bharatpur   9001409058  7922  Active  17-04-2015    .61  51.80 
193 1938 Santosh Kumar 2014-Aksh-BHARATPUR NERA DURGA TEMPLE RANJEET  NAGAR BHARATPUR   9887039878  353  Active  17-04-2015    274.28  114.78 
194 1940 Mukesh Saini 2014-Aksh-BHARATPUR NAGAR ROAD, DEEG Bharatpur Rajasthan    9636585941  296  Active  17-04-2015    2610.06  1605.76 
195 1944 Raghvendra Sharma 2014-Aksh-BHARATPUR RADHA KRISHNA MANDIR WALI GALI B- NARAYAN GATE BHARATPUR     9828856009  3015  Active  18-04-2015    .24  1339.13 
196 1945 Mukesh Chand 2014-Aksh-BHARATPUR IN FRONT OF NAGAR PALIKA NADBAI BHARATPUR RAJASTHAN     9887963208  2468  Active  18-04-2015    16.05  636.09 
197 1946 Lakhan Singh 2014-Aksh-BHARATPUR PADAM VIHAR COLONY SEWAR ROAD BHARATPUR    9468681247  Active  18-04-2015    .37  28.46 
198 1949 Raju Singh 2014-Aksh-BHARATPUR 52, JATAV MOHALLA SADPURI THE. NAGAR Bharatpur Rajasthan    8094133729  553  Active  18-04-2015    154.45  593.04 
199 1950 Mukesh Chand Sharma 2014-Aksh-BHARATPUR RADHA SWAMI SCHOOL KE SAMNE KHERLI  ROAD NAGAR BHARATPUR   9460646954  1199  Active  18-04-2015    .49  1109.56 
200 1951 Pushpendra Kumar 2014-Aksh-BHARATPUR ATAL SEWA KENDRA FARSO THE. BAYANA BHARATPUR RAJASTHAN    9887740044  2761  Active  18-04-2015    116.66  11.60 
201 1964 Vinod Kumar Sharma 2014-Aksh-BHARATPUR MAIN MARKET SEWAR BHARATPUR    9649644179  4425  Active  22-04-2015    113.42  244.63 
202 2014 Mousam 2014-Aksh-BHARATPUR NEAR GOVT. HOSPITAL PAHARI Bharatpur Rajasthan    9887812410  1670  Active  29-04-2015    1.94  131.94 
203 2015 Suveer Chhonkar 2014-Aksh-BHARATPUR NEW CIVIL LINES WARD N0. 39 BHARATPUR    8560087478  2618  Active  29-04-2015    1.7  612.17 
204 2017 Jal Singh 2014-Aksh-BHARATPUR KHERLI GADASIYA TEH. BAYANA Bharatpur    9784913377  129  Active  29-04-2015    .69  1299.19 
205 2031 Yashpal Singh 2014-Aksh-BHARATPUR ATAL SEWA KENDRA ,BACHHRAIN TEH. WEIR BHARATPUR.    9680771458  2309  Active  30-04-2015    4.54  509.18 
206 2035 Vikram Singh 2014-Aksh-BHARATPUR ATAL SEWA KENDRA BARAI THE.DEEG, Bharatpur    9680467064  342  Active  30-04-2015    3303.57  482.09 
207 2040 Ved Prakash 2014-Aksh-BHARATPUR ATAL SEWA KENDRA TERHIYA THE.RUPWAS BHARATPUR    05648277021  3457  Active  30-04-2015    7.01  444.78 
208 2041 Ramveer Singh 2014-Aksh-BHARATPUR ATAL SEWA KENDRA BARSO BHARATPUR    9887493642  118  Active  30-04-2015    .19  66.96 
209 2043 Pushpendra Kumar 2014-Aksh-BHARATPUR PUSHPENDRA EMITRA CENTRE GOPALGARH BHARATPUR RAJASTHAN    9413303160  19  Active  30-04-2015    .39  395.04 
210 2044 Nitin Kumar Sachdeva 2014-Aksh-BHARATPUR BABA PHOTOSTATE JUREHRA THE. KAMAN Bharatpur    9667069627  45  Active  30-04-2015    42.15  0.00 
211 2046 Rinku Kumar Rawat 2014-Aksh-BHARATPUR MOROLI DAHAR TEH. RUPWAS, Bharatpur    9927130712  808  Active  30-04-2015    5399.35  5.50 
212 2048 Ashok Kumar 2014-Aksh-BHARATPUR 135, RUNDHIYA NAGAR NEAR GIRRAJ KENAL BHARATPUR Rajasthan    9828370901  3171  Active  01-05-2015    985.45  280.50 
213 2059 Hemant Kumar Sharma 2014-Aksh-BHARATPUR PURABAI KHERA TEH. BAYANA DIST BHARATPUR    9772739816  12983  Active  04-05-2015    65.66  311.43 
214 2070 Rajpal Yadav 2014-Aksh-BHARATPUR KALYAN MOHALLA KAMAN BHARATPUR RAJASTHAN    8058657957  305  Active  05-05-2015    .52  0.00 
215 2071 Khem Singh 2014-Aksh-BHARATPUR ATAL SEWA KENDRA SALABAD THE. BAYANA    9887368362  114  Active  05-05-2015    66.93  47.83 
216 2072 Subham Khandelwal 2014-Aksh-BHARATPUR PAWAN KUNJ COLONY WARD N024 KAMAN Bharatpur Rajasthan    8387872670  3472  Active  05-05-2015    .09  124.35 
217 2073 Pankaj Kumar 2014-Aksh-BHARATPUR GOPALGARH PAHARI BHARATPUR RAJASTHAN    9828551252  2221  Active  05-05-2015    7451.25  21.28 
218 2096 Arun Singh 2014-Aksh-BHARATPUR ATAL SEWA KENRDAR NEWARA THE. WEIR BHARATPUR RAJASTHAN    9001686769  186  Active  06-05-2015    2000.08  1329.56 
219 2098 Shree Ram 2014-Aksh-BHARATPUR ATAL SEWA KENDRA SABORA THE. KUMHER Bharatpur Rajasthan    9929169030  2087  Active  06-05-2015    455.84  679.13 
220 2099 Radharaman Sharma 2014-Aksh-BHARATPUR ATAL SEWA KENDRA PARAUA THE.RUPWAS Bharatpur Rajasthan    9887196436  4216  Active  06-05-2015    17.61  4175.22 
221 2100 Gopal Prasad 2014-Aksh-BHARATPUR ATAL SEWA KENDRA GOVINDPURA WEIR BHARATPUR RAJASTHAN    8696367636  10  Active  06-05-2015    .31  426.06 
222 2132 Bhupendra Singh 2014-Aksh-BHARATPUR DEEP COMPUTER CENTRE PAHUA THE. KUMHER, Bharatpur    9828815751  805  Active  14-05-2015    232.99  990.69 
223 2133 Pankaj Agarwal 2014-Aksh-BHARATPUR PURANI ANAJ MANDI WEIR Bharatpur Rajasthan    9461966250  340  Active  14-05-2015    .17  918.98 
224 2135 Anil Kumar 2014-Aksh-BHARATPUR ATAL SEWA KENDRA BIDIYARI TEH. BAYANA BHARATPUR RAJASTHAN    9414226716  71  Active  14-05-2015    7.01  199.53 
225 2144 Roopkishor Yadav 2014-Aksh-BHARATPUR Atal Seva Kendra Berro Nagar Bharatpur Rajasthan    9799180017  260  Active  20-05-2015    1500.97  2070.18 
226 2145 Surjeet Singh 2014-Aksh-BHARATPUR ATAL SEWA KENDRA SAHSAN THE. PAHARI BHARATPUR RAJASTHAN    8441058009  1680  Active  20-05-2015    1300.24  38.26 
227 2146 Fareed Khan 2014-Aksh-BHARATPUR 115 JATAV MOHALLA MUDIYA THE. NAGAR BHARATPUR RAJASTHAN    9587727320  180  Active  20-05-2015    209.2  303.21 
228 2147 Akhlesh Kumar Sharma 2014-Aksh-BHARATPUR ATAL SEWA KENDRA JAGGIVANPUR THE. WEIR BHARATPUR RAJASTHAN    9950251165  357  Active  20-05-2015    22.98  9.57 
229 2149 Vinod Kumar Sain 2014-Aksh-BHARATPUR ATAL SEWA KENDRA MAINAPURA TEH. BHUSAWAR BHARATPUR RAJASTHAN    9549586750  62  Active  20-05-2015    807.17  1117.42 
230 2160 Jyoti Gupta 2014-Aksh-BHARATPUR CM PRINTERS EMITRA CENTRE BHARATPUR RAJASTHAN    9166834100  2042  Active  26-05-2015    315.92  49.50 
231 2164 Arun Kumar 2014-Aksh-BHARATPUR INFRONT OF PNB BANK DEEG ROAD BHARATPUR Rajasthan    9887887202  6794  Active  26-05-2015    403.72  258.98 
232 2168 Rajkumar 2014-Aksh-BHARATPUR Gram Panchayat LAKHAN THESILKUMHER, Bharatpur    9983684578  373  Active  26-05-2015    1565.88  830.37 
233 2174 Amit Chawla 2014-Aksh-BHARATPUR INFRONT OF SDM COURT KAMAN BHARATPUR RAJASTHAN    9610376376  Active  27-05-2015    14.73  0.00 
234 2176 Bhupendra Kumar Dixit 2014-Aksh-BHARATPUR GANDHI NAGAR ROAD SEWAR ROAD BHARATPUR RAJASTHAN    9887503135  337  Active  27-05-2015    5.71  746.04 
235 2258 Balram Yadav 2014-Aksh-BHARATPUR CHURI BAZAR TEH. NAGAR BHARATPUR    9352777935  12  Active  10-06-2015    .63  1047.39 
236 2261 Iliyas Khan 2014-Aksh-BHARATPUR ATAL SEWA KENDRA TODA THESIL DEEG    9772391011  11856  Active  10-06-2015    511.62  851.39 
237 2265 Satyendra Kumar 2014-Aksh-BHARATPUR Vpo Sikri Teh Nagar Bharatpur    9413994113  194  Active  15-06-2015    160.45  80.68 
238 2290 Samsuddin 2014-Aksh-BHARATPUR Viil- Jhantli Teh. Nagar Dist. Bhartpur Rajasthan    7665913436  1622  Active  18-06-2015    9.07  44.35 
239 2302 Dharm Singh 2014-Aksh-BHARATPUR SUNDRAWALI THESIL NAGAR BHARATPUR RAJASTHAN    9887586072  199  Active  20-06-2015    .57  632.63 
240 2304 Chet Ram 2014-Aksh-BHARATPUR NEAR BUS STAND KHOH TEHSIL DEEG BHARATPUR    9928272289  98  Active  20-06-2015    30.54  296.52 
241 2306 Ramavatar 2014-Aksh-BHARATPUR KHORKI ROAD TEHSIL NAGAR BHARATPUR RAJASTHAN    9571765235  964  Active  20-06-2015    1.18  239.25 
242 2307 Santosh Kumar 2014-Aksh-BHARATPUR MAIN MARKET SEWAR BHARATPUR RAJASTHAN    9887002180  Active  20-06-2015    .14  834.53 
243 2308 Arun Kumar Jain 2014-Aksh-BHARATPUR BUDH KI HAAT BHARATPUR    9782505757  4760  Active  20-06-2015    .36  1391.74 
244 2309 Meghraj 2014-Aksh-BHARATPUR NEAR SDM OFFICE BHUS AWAR BHARATPUR RAJASTHAN   8094670022  2667  Active  20-06-2015    368.49  1609.29 
245 2312 Navneet Kumar 2014-Aksh-BHARATPUR GLOBAL EMITRA VILL.SAIDPURA TESIL RUPWAS BHARATPUR    9414694403  3526  Active  23-06-2015    214.9  152.23 
246 2314 Sanju Sharma 2014-Aksh-BHARATPUR PAI BAGH, BHARATPUR    9461867091  61  Active  27-06-2015    84.83  1383.18 
247 2326 Ravi Kumar 2014-Aksh-BHARATPUR Kaman Bharatpur Rajasthan    7891212512  543  Active  03-07-2015    176.54  0.00 
248 2327 Babli Arya 2014-Aksh-BHARATPUR SAINI MOHALLA KUMHER GATE BHARATPUR RAJASTHAN    9024747685  570  Active  03-07-2015    33.39  429.91 
249 2363 Lokesh Kumar Sharma 2014-Aksh-BHARATPUR NEAR SBI BANK , HINDOUN ROAD   BHUSAWAR , BHARATPUR RAJASTHAN undefined  8058681832  46  Active  24-07-2015    .08  24.63 
250 2364 Tarun Dayal Katara 2014-Aksh-BHARATPUR JASWANT NAGAR NEAR JASWANT SCHOOL BHARATPUR RAJASTHAN    9414945210  Active  24-07-2015    277.41  0.00 
251 2370 Akeel Ahmed 2014-Aksh-BHARATPUR Tehsil CampusNagar,Bharatpur    9982090666  1897  Active  24-07-2015    4.77  1985.01 
252 2374 Vishesh Kumar Sharma 2014-Aksh-BHARATPUR NEAR BHUMIYA BURJ GOPINAAT MAUHLLA KAMAN BHARATPUR RAJASTHAN    7891868653  196  Active  24-07-2015    .72  47.83 
253 2375 Narendra 2014-Aksh-BHARATPUR MAIN ROAD UCCHAIN THESIL RUPBAS BHARATPUR RAJASTHAN    8952963617  449  Active  24-07-2015    1509.8  95.65 
254 2376 Harveer Singh 2014-Aksh-BHARATPUR ATAL SEWA KENDRA GAHLAU TEH RUPBAS BHARATPUR RAJASTHAN    7665861616  475  Active  24-07-2015    492.2  30.23 
255 2378 Aksh Optifibre Limired 2014-Aksh-BHARATPUR VARDHMAN MAHAVEER  OPEN UNIVERSITY BHARATPUR   9782179998  1352  Active  27-07-2015    107.59  220.00 
256 2393 Rakesh Kumar Garg 2014-Aksh-BHARATPUR D-26 SHOPING CENTER JAWAHAR NAGAR  BHARATPUR RAJASTHAN  9352777798  Active  04-08-2015    .8  235.93 
257 2397 Mukand Bihari 2014-Aksh-BHARATPUR CITY SCHOOL KE PASS BAPU BAZAR NAGAR BHARATPUR RAJASTHAN    9024564343  332  Active  05-08-2015    .76  884.78 
258 2399 Ramesh Chand Jha 2014-Aksh-BHARATPUR NEEM KA NEECHE GUD KI MANDI KUMHER BHARATPUR RAJASTHAN    9782514178  3128  Active  05-08-2015    32.23  803.48 
259 2430 Pawan Kumar 2014-Aksh-BHARATPUR ATAL SEWA KENDRA KURKA THE. RUPBAS BHARATPUR    9785135761  368  Active  10-08-2015    9.69  502.17 
260 2431 Asad Malik 2014-Aksh-BHARATPUR ATAL SEWA KENDRA KAKRALA THE. NAGAR BHARATPUR    9887669070  Active  10-08-2015    8597.08  0.00 
261 2432 Ram Ratan Kaushik 2014-Aksh-BHARATPUR EMPLOYEMENT OFFICE BHARATPUR RAJASTHAN    9672900243  2045  Active  10-08-2015    10.35  4313.92 
262 2454 MANOJ KUMAR 2014-Aksh-BHARATPUR Village Uncha Nagla Post Behnera Bharatpur  9001708405  28  Active  25-08-2015    .72  224.40 
263 2467 Rakesh Tiwari 2014-Aksh-BHARATPUR SAUNALI EMITRA CENTRE BRAHMAWAD THESIL BAYANA BHARATPUR RAJASTHAN    8003603730  379  Active  27-08-2015    19.98  162.80 
264 2496 Subhash Singh 2014-Aksh-BHARATPUR ATAL SEWA CENTRE MADARPUR BHARATPUR RAJASTHAN    9001004584  1731  Active  01-09-2015    .32  247.17 
265 2500 Praveen Kumar Jangid 2014-Aksh-BHARATPUR MAINAPURA THESIL BHUSAWAR WEIR BHARATPUR RAJASTHAN    8058947094  1835  Active  03-09-2015    1005.95  90.87 
266 2501 Bhagawan Swaroop Pandey 2014-Aksh-BHARATPUR ATAL SEWA KENDRA WEIR BHARATPUR RAJASTHAN    8829834999  1869  Active  03-09-2015    10.55  583.48 
267 2516 Vijay Singh 2014-Aksh-BHARATPUR VIJAY E-MITRA NEAR MAIN GATE THANA NADBAI BHARATPUR    9782319241  405  Active  11-09-2015    .17  1865.78 
268 2519 Rajesh Singh 2014-Aksh-BHARATPUR RAJESH EMITRA CENTRE BHUSAWAR BHARATPUR RAJASTHAN    9667230074  771  Active  11-09-2015    .86  14.35 
269 2525 Aksh Optifibre Limited 2014-Aksh-BHARATPUR A.EN. OFFICE (O&M), BAYANA BHARATPUR    9414485885  66  Active  16-09-2015    3.15  746.09 
270 2526 Jagveer Singh 2014-Aksh-BHARATPUR PARUL EMITRACENTRE KATARA NADBAI BHARATPUR RAJASTHAN    8384961669  286  Active  17-09-2015    289.41  746.09 
271 2528 Bhuvnesh Katara 2014-Aksh-BHARATPUR Dahina Ganv, GP Dahina Ganv, PS Roopwas    8432325507  1880  Active  18-09-2015    379  243.91 
272 2530 Rohit Barhguzar 2014-Aksh-BHARATPUR ROHIT EMITRA NEAR SBI BANK STATION ROAD BAYANA BHARATPUR    9783878131  1526  Active  28-09-2015    36.09  9.57 
273 2531 Vipin Kumar Jain 2014-Aksh-BHARATPUR SARAFA BAZAR JUREHRA TEH.- KAMA DIST.- BHARATPUR RAJASTHAN    9414716155  15501  Active  29-09-2015    28.52  1243.96 
274 2552 Krishna Kant 2014-Aksh-BHARATPUR KRISHI TAYARS KE PASS DEEG ROAD BHARATPUR    9024281316  392  Active  01-10-2015    .35  445.74 
275 2582 Yogesh Kumar 2014-Aksh-BHARATPUR SABLANA TEHSIL KAMAN BHARATPUR RAJASTHAN    9057464748  636  Active  14-10-2015    1.68  875.22 
276 2583 Sushila Agrawal 2014-Aksh-BHARATPUR COURT CAMPAS BHARATPUR RAJASTHAN    9461033105  Active  14-10-2015    .72  200.39 
277 2588 Dal Chand 2014-Aksh-BHARATPUR NEAR PANCHYAT KE PASS SIKRI BHARATPUR RAJASTHAN    9672135624  360  Active  16-10-2015    4802.24  273.33 
278 2589 Bhoori Singh 2014-Aksh-BHARATPUR MUDHERA ROOPWAS BHARATPUR    9610041014  1113  Active  17-10-2015    250.44  373.04 
279 2601 Kavishwar Kant 2014-Aksh-BHARATPUR DEVRAJ EMITRA COMPUTER CENTRE MATHURA JAIPUR BAIPASS BHARATPUR    8386909066  6019  Active  28-10-2015    .18  2264.33 
280 2603 Deepak Garg 2014-Aksh-BHARATPUR MAIN MARKET ROOPWAS BHARATPUR RAJASTHAN    9549786858  365  Active  28-10-2015    .93  3300.00 
281 2605 Hemant Kumar Jain 2014-Aksh-BHARATPUR NEAR HANUMAN MANDIR GOPALGARH BHARATPUR    9667004985  181  Active  28-10-2015    4.43  360.80 
282 2608 Atar Singh 2014-Aksh-BHARATPUR ATAL SEVA KENDRA JAISHRI TEH. NAGAR BHARATPUR    9983740637  Active  30-10-2015    8537.64  0.00 
283 2613 Avinesh Garg 2014-Aksh-BHARATPUR B- 93 SUBHASH NAGAR BHARATPUR    9694545963  7572  Active  02-11-2015    .93  1472.85 
284 2639 Surendra Singh 2014-Aksh-BHARATPUR NEAR BUS STAND KALSARA TEH. BAYANA BHARATPUR    8502881401  Active  07-11-2015    1212.45  0.00 
285 2645 Vishnu Kumar Sharma 2014-Aksh-BHARATPUR ATAL SEWA KENDR PALI DANG TH. BAYANA BHARATPUR RAJASTHAN    8239531975  382  Active  20-11-2015    109.82  192.84 
286 2720 Artee Kumari 2014-Aksh-BHARATPUR GAYATRI PHOTO STATE COLLECTRECT ROAD BHARATPUR    7742507865  903  Active  09-12-2015    .89  353.91 
287 2722 Praveen Kumar 2014-Aksh-BHARATPUR PRAVEEN E-MITRA NEW PUSHPVATIKA COLONY BHARATPUR    9414980248  575  Active  09-12-2015    .8  475.87 
288 2723 Shahid Khan 2014-Aksh-BHARATPUR NEAR KISAN BHAWAN DEEG ROAD BHARATPUR    9785989270  96  Active  09-12-2015    1.78  9.57 
289 2724 Neeraj Saini 2014-Aksh-BHARATPUR KRISHNA E-MITRA SURAJPOLE GATE BHARATPUR    7733869060  830  Active  09-12-2015    .31  1333.86 
290 2749 Kamal Dass 2014-Aksh-BHARATPUR INDRA NAGAR NALE KE PASS BHARATPUR    9785180936  7990  Active  19-12-2015    .15  647.04 
291 2751 Devki Dixit 2014-Aksh-BHARATPUR KATARA MARKET RUPBAS BHARATPUR    8387943416  1713  Active  22-12-2015    1512.95  0.00 
292 2752 Banay Singh 2014-Aksh-BHARATPUR HARE KRISHNA EMITRA MAHAHADPURA TEHSIL BAYANA Bharatpur    9982322322  297  Active  22-12-2015    .04  11.00 
293 2753 Peetam Singh Saini 2014-Aksh-BHARATPUR BHARTI EMITRA CENTRE NEAR TEHSIL BHUSAWAR BHARATPUR    8502805851  1995  Active  22-12-2015    260.09  2128.26 
294 2789 Dilawer Khan 2014-Aksh-BHARATPUR KHERLI GUMANI TEH. KAMAN DIST.- BHARATPUR RAJASTHAN    8502079191  Active  05-01-2016    1720.63  0.00 
295 2810 Hakim Singh 2014-Aksh-BHARATPUR Atal Sewa Kendra Lahachorakalan Bayana Bharatpur    9057616307  158  Active  06-01-2016    200.53  1038.89 
296 2811 Ravi Katheriya 2014-Aksh-BHARATPUR Saksham E-Mitra Centre, Jaghina Gate  Gopal Garh, Bharatpur undefined  7062452805  2097  Active  06-01-2016    .22  168.92 
297 2812 Vishnu Sharma 2014-Aksh-BHARATPUR LAVANIYA E-MITRA CENTRE, SEWAR FORT KE SAMENE  SEWARVROAD, BHARATPUR undefined  8947921593  210  Active  06-01-2016    .74  817.83 
298 2814 Jeetendra Singh 2014-Aksh-BHARATPUR OM - SHAI E-MITRA CENTRE, V- RARAH  TEH. - KUMHER, BHARATPUR undefined  9680990299  1321  Active  06-01-2016    95.19  1444.35 
299 2815 Prasoon Singhal 2014-Aksh-BHARATPUR BAUJI TELECOME & E-MITRA CENTRE SURAJPOLE CHAURAHA GOPAL GARH , BHARATPUR    8559826434  201  Active  06-01-2016    .49  111.67 
300 2862 Asjad Khan 2014-Aksh-BHARATPUR ASJAD EMITRA CENTRE SIKRI VILLAGE BHUHAPUR THE. NAGAR    8239103850  Active  21-01-2016    155.48  0.00 
301 2885 Neeraj Kumar 2014-Aksh-BHARATPUR BAROLICHHAR TEH. NADBAI (PAY POINT)Bharatpur     9660985921  Active  30-01-2016    4.90 
302 2890 Devendra Kumar 2014-Aksh-BHARATPUR ANKIT PHOTO STATE GAYATRI COLLONY NADBAI Bharatpur    8947841656  Active  30-01-2016    3.5  10.03 
303 2922 Soop Ram Jatav 2014-Aksh-BHARATPUR Paypoint PASOPA Deegbharatpur     9001596884  Active  04-02-2016    1.9  0.00 
304 2923 Naresh Kumar 2014-Aksh-BHARATPUR Paypoint BELARA KALA TEHSIL KUMHER Bharatpur     9413995932  Active  04-02-2016    27.38 
305 2924 Ram Singh 2014-Aksh-BHARATPUR CHULERA TEHSIL DEEG Bharatpur     8503085433  Active  04-02-2016    .95  0.00 
306 2927 Narendra Singh 2014-Aksh-BHARATPUR Pay Point BEDHAM TEHSIL DEEG Bharatpur     8561067043  Active  04-02-2016    0.00 
307 2932 Taiyyab Khan 2014-Aksh-BHARATPUR NEAR MASJID, GARHI MEWAT  BEDHAM, BHARATUR undefined  9610299014  Active  04-02-2016    1.85  0.00 
308 2934 Pramod Kumar 2014-Aksh-BHARATPUR VILLAGE - GIRSE, TEHSIL - DEEG  BHARATPUR   9950101060  Active  04-02-2016    .84  0.00 
309 2949 Ravi Lawaniya 2014-Aksh-BHARATPUR GOVERDHAN GATE, BHARATPUR    9667420119  1887  Active  05-02-2016    152.55  16.50 
310 2959 Vipin Bansal 2014-Aksh-BHARATPUR Paypoint KHERIA PUROHIT SONGAON DEEG BHARATPUR    9024484998  Active  09-02-2016    0.00 
311 2960 Jeetendra Kumar 2014-Aksh-BHARATPUR Pay Point Shripur,Deeg Bharatpur    8058334322  Active  09-02-2016    .59  59.32 
312 2961 Dhanesh Kumar 2014-Aksh-BHARATPUR EMITRA PAYPOINT SINSINI, BHARATPUR    9983301011  Active  09-02-2016    0.00 
313 2962 Surendra Singh 2014-Aksh-BHARATPUR EMITRA PAYPOINT KHEMRA BHARATPUR    9828434242  Active  09-02-2016    0.00 
314 2963 Baboo Lal 2014-Aksh-BHARATPUR EMITRA PAYPOINT UMRA, DEEG  BHARATPUR    9460740002  Active  09-02-2016    4.56 
315 2964 Ajay Singh 2014-Aksh-BHARATPUR EMITRA PAYPOINT SUKHAWALI, BHARATPUR    9414718383  Active  09-02-2016    0.00 
316 2965 Rinku Kumar 2014-Aksh-BHARATPUR EMITRA PAYPOINT VILLAGE - TUHIYA, TYONGA  BHARATPUR   8058561420  Active  09-02-2016    0.00 
317 2966 Asjad Khan 2014-Aksh-BHARATPUR Emitra Paypoint BHUAPUR GARHI TEHSIL NAGAR Bharatpur     9529709046  Active  09-02-2016    0.00 
318 2967 Manoj Kumar Saini 2014-Aksh-BHARATPUR EMITRA PAYPOINT SAINI MOHALLA, BEWAR  HALENA, BHARATPUR undefined  9660253382  Active  09-02-2016    0.00 
319 2968 Rajesh Kumar Gupta 2014-Aksh-BHARATPUR EMITRA PAYPOINT VILLAGE - AJROUNDA, TEHSIL - WEIR  BHARATPUR    8290136831  Active  09-02-2016    .95  0.00 
320 2969 Sushil Kumar 2014-Aksh-BHARATPUR EMITRA PAYPOINT BANI KUMHAR, BHARATPUR     9587999024  Active  09-02-2016    0.00 
321 2970 Pramod Kumar Sharma 2014-Aksh-BHARATPUR EMITRA Paypoint BAI,WEIR  BHARATPUR   9414526914  Active  09-02-2016    0.00 
322 2971 Brijesh Kumar 2014-Aksh-BHARATPUR EMITRA PAYPOINT KUTAKPUR, CHIRAWALMALI  NAGAR, BHARATPUR  undefined  8058976432  Active  09-02-2016    0.00 
323 2972 Gopal Prasad 2014-Aksh-BHARATPUR EMITRA PAYPOINT GOVINDPURA GP MUHARI THE. WEIR Bharatpur     8696367635  Active  09-02-2016    1.79  9.13 
324 2973 Jaswant Singh 2014-Aksh-BHARATPUR EMITRA PAYPOINT KASODA GP MADAHONI THE. BHARATPUR    9001649139  Active  09-02-2016    .95  0.00 
325 2974 Kuldep Singh 2014-Aksh-BHARATPUR EMITRA PAYPOINT GANGROLI POST HISHAMDA TEH WEIR Bharatpur     9667234915  Active  09-02-2016    .9  0.00 
326 2975 Bharat Singh 2014-Aksh-BHARATPUR EMITRA PAYPOINT NAHREPUR GP SIRAS TEHSIL WEIR BHARATPUR    9660347922  Active  09-02-2016    1.9  9.13 
327 2976 Manoj Kumar 2014-Aksh-BHARATPUR EMITRA PAYOINT SHYAMDHAK, BAROLI CHAUTH  DEEG, BHARATPUR undefined  9413309325  Active  09-02-2016    0.00 
328 2977 Hariom 2014-Aksh-BHARATPUR EMITRA PAYPOINT GUHANA, DEEG  BHARATPUR   9414449940  Active  09-02-2016    0.00 
329 2978 Sumit Singh 2014-Aksh-BHARATPUR EMITRA PAYPOINT Bahnera Sewar Bharatpur     7297895400  Active  09-02-2016    1.11  82.14 
330 2979 Vipin Kumar 2014-Aksh-BHARATPUR EMITRA PAYPOINT SEHU GP PADMADRA TEH. DEEG Bharatpur     9694805536  Active  09-02-2016    .95  0.00 
331 2980 Nagendra Singh 2014-Aksh-BHARATPUR EMITRA PAYPOINT NARENA CHOTH GP PASTA TEH. DEEG Bharatpur     9785350540  Active  09-02-2016    .95  0.00 
332 2981 Kehar Singh 2014-Aksh-BHARATPUR EMITRA PAYPOINT SHAYPUR GP BARAI TEH. DEEG Bharatpur     9887327743  Active  09-02-2016    .84  0.00 
333 2986 Indrajeet Boudh 2014-Aksh-BHARATPUR EMITRA PAYPOINT JHEETREDI  GP SEMLA KALAN TEH. NAGAR Bharatpur    7891847732  Active  09-02-2016    0.00 
334 2987 Nem Singh 2014-Aksh-BHARATPUR EMITRA PAYPOINT  PIRAKA GP SAIMLAKALAN TEH. NAGAR Bharatpur    9024459580  Active  09-02-2016    1.79  0.00 
335 2988 Prem Prakash 2014-Aksh-BHARATPUR POOLICE THANE KE GATE KE PASS TEHSIL NADBAI Bharatpur    8947841512  1145  Active  10-02-2016    124.67  554.78 
336 2989 Khem Chand Sharma 2014-Aksh-BHARATPUR ATAL SEVA KENDRA, SOGAR  KUMHER, BHARATPUR undefined  9782149599  Active  10-02-2016    0.00 
337 2990 Sonu Bansal 2014-Aksh-BHARATPUR VILLAGE And POST - SABORA, TEHSIL - KUMHER  DISTRICT- BHARATPUR   9785537341  1710  Active  10-02-2016    271.68  39.41 
338 2992 Vinod Kumar Agrawal 2014-Aksh-BHARATPUR UNCLE G EMITRA A-93RANJEET NAGAR BHARATPUR    9413113575  269  Active  10-02-2016    67.96  148.50 
339 2993 Kshitij Singh 2014-Aksh-BHARATPUR EMITRA Paypoint MADARPUR, CHIKSANA  SEWAR, BHARATPUR undefined  8946830750  Active  11-02-2016    0.00 
340 2994 Sahil Khan 2014-Aksh-BHARATPUR EMITRA PAYPOINT BHUTA GP MUDIYA TEH. NAGAR    9785709285  Active  11-02-2016    0.00 
341 2995 Rasid Khan 2014-Aksh-BHARATPUR EMITRA PAYPOINT BALKHEDHA GP KHKHABALI TEH. NAGAR Bharatpur     9828254582  Active  11-02-2016    .9  0.00 
342 2996 Soran 2014-Aksh-BHARATPUR EMITRA PAYPOINT NARANA GP BANDHA CHOTH TEH. DEEG Bharatpur     9214065753  Active  11-02-2016    0.00 
343 2997 Anil Goyam 2014-Aksh-BHARATPUR EMITRA PAYPOINT ROJKI GP PENDKA TEH. NAGAR Bharatpur     9694896625  Active  11-02-2016    0.00 
344 2998 Ajab Singh Beekarwar 2014-Aksh-BHARATPUR EMITRA PAYPOINT MAI KA NAGLA GP MAI TEH. NADBAI Bharatpur     9929499299  Active  11-02-2016    1.85  18.25 
345 2999 Ankur Thanua 2014-Aksh-BHARATPUR EMITRA PAYPOINT NAUHGAYA , HATHENI  SEWAR, BHARATPUR undefined  9414208208  Active  11-02-2016    0.00 
346 3017 Satnam Singh Sandhu 2014-Aksh-BHARATPUR EMITRA Paypoint BARRPURA , AGHAPUR  CHIKSANA, SEWAR  BHARATPUR  9694565465  Active  13-02-2016    0.00 
347 3022 Ashwani Singh 2014-Aksh-BHARATPUR EMITRA PAY POINT VIJAY NAGAR, RUNDH HELAK  KUMHER, BHARATPUR undefined  9829159955  Active  15-02-2016    0.00 
348 3023 Siddharth Agre 2014-Aksh-BHARATPUR Emitra Paypoint Vijaynagar Khumer Bharatpur Rajasthan     9694837688  Active  15-02-2016    0.00 
349 3024 Ram Singh 2014-Aksh-BHARATPUR EMITRA PAY POINT GHATOLI POST KHANSURJAPUR TEH. RUPBAS BHARATPUR    9929404345  Active  15-02-2016    .9  0.00 
350 3025 Chandra Prakash Yadav 2014-Aksh-BHARATPUR EMITRA PAY POINT MAHCHAULI PIPLA BLOCK SEWAR BHARATPUR    8769060087  867  Active  15-02-2016    50.41  249.13 
351 3029 Neeru Singh 2014-Aksh-BHARATPUR EMITRA PAY POINT BHAHRABALI GP BHESHA TEH. RUPBAS BHARATPUR    9166676846  Active  16-02-2016    .95  0.00 
352 3030 Ravi Kumar 2014-Aksh-BHARATPUR EMITRA PAY POINT KARMUKABAAS GP LEHRSAR TEH. KAMAN BHARATPUR    7891212511  Active  16-02-2016    0.00 
353 3032 Manoj Kumar 2014-Aksh-BHARATPUR EMITRA PAY POINT LODHAHEDI GP GHANKAR TEH. NAGAR BHARATPUR    8058260315  Active  16-02-2016    0.00 
354 3034 Narendra Kumar 2014-Aksh-BHARATPUR EMITRA PAY POINT JATOLI GHANA GP BACHAMDI SEWAR BHARATPUR    9461841710  Active  16-02-2016    0.00 
355 3035 Chhote Lal 2014-Aksh-BHARATPUR EMITRA PAY POINT SUPAWAS GP RETHOTI TEH. KUMHER BHARATPUR    9636282236  Active  16-02-2016    0.00 
356 3036 Ramveer Gurjar 2014-Aksh-BHARATPUR EMITRA PAY POINT RANOTA GP MORAKA TEH. NAGAR BHARATPUR    9785438001  Active  16-02-2016    0.00 
357 3037 Ramchand 2014-Aksh-BHARATPUR EMITRA PAY POINT RAVIDASPURA GP GANGABAK TEH NAGAR BHARATPUR     9929797614  Active  16-02-2016    0.00 
358 3038 Ramavtar Gurjar 2014-Aksh-BHARATPUR EMITRA PAY POINT GHATA GP PALLA TEH. KAMAN BHARATPUR    9468682522  Active  16-02-2016    .95  0.00 
359 3039 Mohammad Irashad 2014-Aksh-BHARATPUR EMITRA PAY POINT ANGRAWALI GP BILONG TEH. KAMAN BHARATPUR    9828282183  Active  16-02-2016    0.00 
360 3040 Lakhan Singh 2014-Aksh-BHARATPUR EMITRA PAY POINT JURHARI GP PAAI TEH. KAMAN BHARATPUR    9887539321  Active  16-02-2016    0.00 
361 3041 Narayan Singh 2014-Aksh-BHARATPUR Emitra Pay Point Badhipur Gp Satwas Teh. Kaman Bharatpur    7792951767  Active  16-02-2016    1.74  50.20 
362 3042 Rajesh Kumar 2014-Aksh-BHARATPUR EMITRA PAY POINT BAJHRA GP SUNHERA TEH. KAMAN BHARATPUR    9927238301  Active  16-02-2016    .84  54.76 
363 3058 Bachchu Singh 2014-Aksh-BHARATPUR NEAR GANDHI MANDIR, PANCHYAT SAMITI ROAD  BAYANA, BHARATPUR undefined  9414446200  593  Active  17-02-2016    18.99  782.39 
364 3063 Jagdish Kumar 2014-Aksh-BHARATPUR EMITRA PAY POINT BADHRIPUR TEHSIL DEEG BHARATPUR    9694546972  Active  19-02-2016    0.00 
365 3064 Akash Agre 2014-Aksh-BHARATPUR EMITRA PAY POINT SATYAPURA, RUNDH HELAK  KUMHER , BHARATPUR undefined  9782123003  Active  19-02-2016    0.00 
366 3070 Mohammad Salim 2014-Aksh-BHARATPUR EMITRA PAYPOINT PEEPROLI SIKRI NAGHAR Bharatpur     8107165786  Active  23-02-2016    0.00 
367 3071 Ashok Kumar 2014-Aksh-BHARATPUR EMITRA PAY POINT BOOLKHERA KA BASS GP BOOLKHERA TEH. KAMAN     9950292638  Active  23-02-2016    0.00 
368 3110 Hakim Singh 2014-Aksh-BHARATPUR EMITRA PAY POINT AJNOULI GP LAHCHORAKALAN TEH. BAYANA BHARATPUR    7615999265  Active  01-03-2016    1.59  0.00 
369 3113 Rahul Kumar 2014-Aksh-BHARATPUR EMITRA PAY POINT KARBAN GP SUHARI TEH. BHUSAWAR BHARATPUR    9694772267  Active  01-03-2016    0.00 
370 3114 Sarpu Khan 2014-Aksh-BHARATPUR EMITRA PAY POINT RAYAPUR SUKETI GP PALKA TEH NAGAR BHARATPUR    8696530760  Active  01-03-2016    0.00 
371 3115 Govind Singh 2014-Aksh-BHARATPUR EMITRA PAY POINT MADANPUR GP DHADREN TEH. BAYANA BHARATPUR    8003062401  Active  01-03-2016    0.00 
372 3117 Rijwan Khan 2014-Aksh-BHARATPUR EMITRA PAY POINT RASULPUR GP KAKRALA TEH. NAGAR BHARATPUR    9982157989  Active  01-03-2016    0.00 
373 3120 Bahadur Singh 2014-Aksh-BHARATPUR Emitra Pay Point Vill Hingota Deeg Bharatpur    9828713071  Active  01-03-2016    2155.5  0.00 
374 3152 Naval Singh 2014-Aksh-BHARATPUR VILLAGE - BAJHERA, POST - BACHHAMADI NOH  TEHSIL And DISTRICT - BHARATPUR   8233007554  468  Active  04-03-2016    1500.53  1014.07 
375 3153 Ravi Kumar 2014-Aksh-BHARATPUR Goga Ji E-mitra Ward no 20 Near Kathputali  Temple Mohalla Gopal Garh Bharatpur (Rajasthan)   8058573640  222  Active  04-03-2016    438.12  132.23 
376 3154 Mukesh Chaturvedi 2014-Aksh-BHARATPUR KANJOLI LINE BHARATPUR    9024718864  1706  Active  04-03-2016    21.53  1600.26 
377 3155 Lukman Hakeeem 2014-Aksh-BHARATPUR VILL.DAYANAWAS POST KHOHRI TEHSIL NAGAR Bharatpur     9828485035  270  Active  04-03-2016    300  28.70 
378 3156 Yadvendra Singh 2014-Aksh-BHARATPUR EMITRA PAY POINT MILKIPURA GP KHAGRI TEH. NADBAI BHARATPUR    7240724818  Active  04-03-2016    .58  0.00 
379 3157 Mukhiya Singh 2014-Aksh-BHARATPUR EMITRA PAY POINT BARABALI GP SONGAWON TEH. DEEG BHARATPUR    9660011940  Active  04-03-2016    261.75  0.00 
380 3158 Rajendra Singh 2014-Aksh-BHARATPUR EMITRA PAY POINT GULBANEE GP JAISHREE TEH. NAGAR BHARATPUR    9166177097  Active  04-03-2016    0.00 
381 3192 Mahesh Chand 2014-Aksh-BHARATPUR EMITRA PAYPOINT SANDUGAR GP PEPAL KEHDA TEH. PAHADI BHARATPUR    9983446060  Active  11-03-2016    0.00 
382 3193 Prakash Chand 2014-Aksh-BHARATPUR EMITRA PAY POINT MEHRAMPUR GP RAISHEES TEH. NADBAI BHARATPUR    9694206895  Active  11-03-2016    0.00 
383 3194 Santoshi Lal 2014-Aksh-BHARATPUR Emitra Pay Point UNDRA GP GUSYAARI TEH BHARATPUR    8947064553  Active  11-03-2016    .95  0.00 
384 3195 Narayan Singh 2014-Aksh-BHARATPUR RAJPOOT EMITRA INDRA COLONEY TEHSIL KAMAN Bharatpur     9680813030  51  Active  12-03-2016    751.31  253.79 
385 3196 Amit Kumar 2014-Aksh-BHARATPUR VILL & POST PEEPLA TEH BHARATPUR    8426960798  495  Active  12-03-2016    883.63  0.00 
386 3197 Jeetendra Kumar 2014-Aksh-BHARATPUR EMITRA PAY POINT JOGIPURA GP BAROLIRAAN TEH. NADBAI BHARATPUR    9694471104  Active  14-03-2016    0.00 
387 3198 Sagar Kirad 2014-Aksh-BHARATPUR EMITRA PAY POINT UNEAR GP ECHARA TEH. NADBAI BHARATPUR    8058300769  Active  14-03-2016    0.00 
388 3199 Sonu Rawat 2014-Aksh-BHARATPUR EMITRA PAY POINT SIKRORA GP SIKRORI TEH. KUMHER BHARATPUR    9785171759  Active  14-03-2016    0.00 
389 3200 Prakash Chand 2014-Aksh-BHARATPUR EMITRA PAY POINT JAHRLA GP BALABGARD TEH. WEIR BHARATPUR    9784958550  Active  14-03-2016    9.13 
390 3201 Sanjay Singh 2014-Aksh-BHARATPUR EMITRA PAY POINT LULHAARO GP PAHERSAR THE. NADBAI BHARATPUR    9413301358  Active  14-03-2016    0.00 
391 3202 Anil Singh 2014-Aksh-BHARATPUR EMITRA PAY POINT UDPURI GP SAADPURI TEH. NAGAR BHARATPUR    8440082546  Active  14-03-2016    0.00 
392 3203 Rinku Singh 2014-Aksh-BHARATPUR EMITRA PAY POINT VILLAGE - DIDWARI, Gram Panchayat -  TALPHARA TEHSIL - NAGAR  BHARATPUR  7690045154  Active  14-03-2016    0.00 
393 3204 Hargovind Singh 2014-Aksh-BHARATPUR Emitra Pay Point Village - Bailara, Gram Panchayat - Kedi Devi Singh  Tehsil - Nadbai, Bharatpur undefined  9785338413  Active  14-03-2016    1.69  31.94 
394 3205 Hemu Rawat 2014-Aksh-BHARATPUR EMITRA PAY POINT SITARA GP PALA TEH. KUMHER BHARATPUR    9983022353  Active  15-03-2016    0.00 
395 3206 Vijendra Singh 2014-Aksh-BHARATPUR Vill.-Higota Deeg Bharatpur Rajasthan     9928225945  Active  15-03-2016    3.86  86.09 
396 3230 Rajesh Kumar 2014-Aksh-BHARATPUR RAJESH EMITRA CENTRE VIIL. &POST SUNHERA TH. KAMAN Bharatpur     9521192113  30  Active  22-03-2016    1902.57  28.70 
397 3232 Raj Kumar 2014-Aksh-BHARATPUR Vill. Sanwler Teh Pahari Dist Bharatpur    9610072407  Active  22-03-2016    0.00 
398 3233 Shiv Kumar 2014-Aksh-BHARATPUR Bapu Bazar Nagar Bharatpur    9414610952  1490  Active  22-03-2016    1.84  4663.04 
399 3241 Vijay Pal Singh 2014-Aksh-BHARATPUR EMITRA PAY POINT KEALURI GP RONIJA TEH. NADBAI BHARATPUR    9982130413  Active  22-03-2016    0.00 
400 3242 Shaheed 2014-Aksh-BHARATPUR EMITRA PAY POINT MOOTHUKA GP DIMARI TEH. PHADHI BHARATPUR    9783873062  Active  22-03-2016    0.00 
401 3303 Vishnu Kumar 2014-Aksh-BHARATPUR SAMOGAR TEHSIL BAYANA BHARATPUR    8386879606  Active  11-04-2016    59.25  0.00 
402 3348 Usaman 2014-Aksh-BHARATPUR Emitra Pay Point Targama, Gram Panchayat - Ghatri Weir  Bharatpur, Rajasthan undefined  9785563535  Active  14-04-2016    0.00 
403 3349 Haricharan Singh 2014-Aksh-BHARATPUR Emitra Pay Point Village Dhanipura, Gram Panchayat - Nayavas Nadbai  Bharatpur, Rajasthan undefined  7665178638  Active  14-04-2016    0.00 
404 3351 Narayan Singh 2014-Aksh-BHARATPUR EMITRA PAY POINT JHARKAI GP BHOUSINGATEH NADBAI BHARATPUR    8441957123  Active  14-04-2016    .9  77.58 
405 3352 Faiji Khan 2014-Aksh-BHARATPUR EMITRA PAYPOINT CHANDUKADA NAGAR BHARATPUR     8107174788  Active  14-04-2016    0.00 
406 3355 Jagannath Sharma 2014-Aksh-BHARATPUR EMITRA PAY POINT KHOHARI DEEG, BHARATPUR  RAJASTHAN   9782074037  Active  14-04-2016    0.00 
407 3356 Chandra Prakash 2014-Aksh-BHARATPUR EMITRA PAY POINT CHAK CHEALUA GRAM  PANCHAYAT- FATEHPUR KALAN NAGAR, BHARATPUR   9667805875  Active  14-04-2016    0.00 
408 3357 Vinay Garg 2014-Aksh-BHARATPUR EMITRA PAY POINT ATARIPURA (PAY POINT) GRAM PANCHAYAT- BAROLI, WEIR  BHARATPUR,RAJASTHAN undefined  8441086608  Active  14-04-2016    0.00 
409 3418 Junaid Khan 2014-Aksh-BHARATPUR Emitra Pay Point Village - Khohra, Gram  Panchayat - Olanda Kaman. Bharatpur   9983855001  Active  27-04-2016    0.00 
410 3421 Pankaj Kumar 2014-Aksh-BHARATPUR JANGID E-MITRA CENTRE V-P LAITA MUDIA TEH. WEIR BHARATPUR    9549662601  495  Active  27-04-2016    1511.79  274.04 
411 3422 Girdhari Lal 2014-Aksh-BHARATPUR EMITRA PAY POINT BADHAKA GP ALAMSHA TEH. NAGAR BHARATPUR    9024997554  Active  27-04-2016    0.00 
412 3469 Krishan Kant Katara 2014-Aksh-BHARATPUR Mahalpur Kachhi, Dhahina Gaon  Rudawal, Roopwas  Bharatpur - 321402  9680163635  Active  06-05-2016    0.00 
413 3475 Nagendra Kumar 2014-Aksh-BHARATPUR Ashi E-Mitra, Subhash Nagar  Bharatpur   9166376312  943  Active  10-05-2016    .72  594.24 
414 3492 Arsad 2014-Aksh-BHARATPUR Emitra Paypoint DUDAWAL GP DUDAWAL TEH. NAGAR Bharatpur Rajasthan     9929229003  Active  18-05-2016    0.00 
415 3493 Hari Singh 2014-Aksh-BHARATPUR EMITRA PAY POINT VILLAGE - GOBRA, Gram Panchayat- JHANGEERPUR  TEHSIL - NADBAI, BHARATPUR undefined  8290043324  Active  18-05-2016    0.00 
416 3517 Koushal Kumar 2014-Aksh-BHARATPUR Plot No. 55, 56 Tilak Nagar  Bharatpur   9460013498  902  Active  24-05-2016    25.35 
417 3528 Gajendra Singh 2014-Aksh-BHARATPUR House No. - 44/560, Gandhi Nagar  Near Railway Colony, Bharatpur undefined  9610279875  1095  Active  26-05-2016    5.50 
418 3537 Sonu Singh 2014-Aksh-BHARATPUR Village- Naroli, Tehsil - Bayana  Bharatpur   9462927787  Active  27-05-2016    0.00 
419 3580 Rahil 2014-Aksh-BHARATPUR SAHSAN PAHADI BHARATPUR    9785407856  Active  11-06-2016    0.00 
420 3581 Bharti Satija 2014-Aksh-BHARATPUR Kali Ji Bagihi Chauraha, Bharatpur    9001624927  2000  Active  11-06-2016    0.00 
421 3583 Gopal Prasad Sahu 2014-Aksh-BHARATPUR Nala Bazar, Ward No. - 7  Kaman, Bharatpur undefined  8829800860  1000  Active  11-06-2016    1000  0.00 
422 3584 Dharmveer Singh 2014-Aksh-BHARATPUR Holy Mohalla, 4 Thok Vill. Post - Jaghina  Bharatpur   9461460292  1000  Active  11-06-2016    0.00 
423 3599 Shyam Krishna Sharma 2014-Aksh-BHARATPUR OLD BUS STAND, NEAR RAJASTHAN GRAMIN BANK WEIR  WARD NO-10 WEIR BHARATPUR   9782192322  Active  18-06-2016    0.00 
424 814 Aqeela Parveen 2014-Comtech Institute of Technology-Bharatpur In Front of New  Tehsil Kaman Bharatpur  9001892350  1352  Active  26-08-2014    .57  2259.61 
425 840 Amarjeet Singh 2014-Comtech Institute of Technology-Bharatpur V+P Sahasan  Tehsil - Pahari Disst. - Bharatpur  8503801959  Active  03-09-2014    1448.61  0.00 
426 867 Sanjay Singh 2014-Comtech Institute of Technology-Bharatpur INFRONT OF STADIUM, JASWANT     9660718564  18410  Active  15-09-2014    7.61  4289.04 
427 960 DEEPAK KUMAR 2014-Comtech Institute of Technology-Bharatpur Village-RUPBAS BLOCK -RUPBAS DIS- BHARATPUR  9549786858  165  Active  08-10-2014    .07  53.33 
428 1053 Yogesh Kumar 2014-Comtech Institute of Technology-Bharatpur KALYAN MOHALLA WORD NO.15 KAMAN BHARTAPUR    9875114960  41  Active  21-11-2014    .71  767.51 
429 1067 Shiv Kuamr 2014-Comtech Institute of Technology-Bharatpur SHARMA COMPUTERS NEAR GEETA MANDIR, PAI BAGH BHARATPUR (RAJ.)  9530033717  Active  26-11-2014    734.58  19.13 
430 1069 Ram Niwas Saini 2014-Comtech Institute of Technology-Bharatpur NEAR GOVT. HOSPITAL, BHUWASAR  DISTT- BHARATPUR   9587082198  4025  Active  26-11-2014    70.65  1277.04 
431 1108 Ravi Kumar Holker 2014-Comtech Institute of Technology-Bharatpur VILL-BORAI,TEHSIL-KUMHER DISTRICT-BHARATPUR   8952827211  777  Active  10-12-2014    98.24  883.06 
432 1117 Rohit Sharma 2014-Comtech Institute of Technology-Bharatpur A - 270 Jawahar Nagar Bharatpur   9828844867  Active  15-12-2014    .35  143.48 
433 1119 Jeetendra singh Dagur 2014-Comtech Institute of Technology-Bharatpur Vill -Purabai khera The - Bayana Dist - Bharatpur  9928690092  2441  Active  15-12-2014    104.11  636.09 
434 1123 Jeetu Goyal 2014-Comtech Institute of Technology-Bharatpur NAGAR ROAD, KOTWALI K SAMNE  DEEG, DISTT- BHARATPUR undefined  05641224021  1556  Active  17-12-2014    13.65  91.59 
435 1237 Vishambar 2014-Comtech Institute of Technology-Bharatpur VILLAGE.POST.KHANUA TH.RUPBAS DIST.BHARTAPUR    9887622305  45  Active  29-12-2014    1.25  191.11 
436 1457 Samim Khan 2014-Comtech Institute of Technology-Bharatpur Seekri Chak No. 1 Sikri Nagar Bharatpur    9929337831  7256  Active  14-03-2015    4307.26  258.12 
437 1484 Mukesh Chand 2014-Comtech Institute of Technology-Bharatpur Atal Seva Kendra Khemra Kalan    9694775375  18  Active  23-03-2015    1111.2  61.95 
438 1514 Mohan Singh 2014-Comtech Institute of Technology-Bharatpur CHHONKAWADA BHUSWAR BHARATPUR    8385834352  37  Active  25-03-2015    98.88  254.20 
439 1515 Sonu Ram Saini 2014-Comtech Institute of Technology-Bharatpur OLD SABZI MANDI BHUSAWARBHARATPUR    9785004950  238  Active  25-03-2015    3219.68  7.11 
440 1801 Akash Parewa 2014-Comtech Institute of Technology-Bharatpur Infront Of R.K Marbels Behind Pawan Auto Parts Bharatpur    8440901849  Active  06-04-2015    .61  124.35 
441 1817 Ankit Kuntal 2014-Comtech Institute of Technology-Bharatpur G.P Talphara Tehsil Kumher Bharatpur    9785717239  Active  08-04-2015    80.67  0.00 
442 1851 Shokeen 2014-Comtech Institute of Technology-Bharatpur ATAL SEWA KENDRA , BAMANWARI, PAHADI BHARATPUR   BHARATPUR  7877919161  914  Active  14-04-2015    5316.91  9.57 
443 1853 Omprakash 2014-Comtech Institute of Technology-Bharatpur V&P MAI, NADBAI  BHARATPUR   9001126308  2025  Active  14-04-2015    361.14  900.56 
444 1855 Yogesh Kumar 2014-Comtech Institute of Technology-Bharatpur V&P IBRAHIMPUR, ROOPBAS  BHARATPUR   8058990788  35  Active  14-04-2015    728.68  121.29 
445 1963 Chhitar 2014-Comtech Institute of Technology-Bharatpur V&P MAI, NADBAI  BHARATPUR   9636674391  868  Active  20-04-2015    84.9  648.91 
446 2170 Hakmu 2014-Comtech Institute of Technology-Bharatpur ATAL SEVA KENDRA, DHAULET  PAHARI, BHARATPUR undefined  9694786724  Active  26-05-2015    7.13  29.62 
447 2452 Tej Singh 2014-Comtech Institute of Technology-Bharatpur BARAULI RAN, NADBAI  BHARATPUR   9929996128  870  Active  24-08-2015    97.99  0.39 
448 2493 Bhagat Singh 2014-Comtech Institute of Technology-Bharatpur PAWAN KUNJ COLONY, KAMAN  BHARATPUR   9571816262  Active  31-08-2015    49.98  167.39 
449 2494 Dayachand 2014-Comtech Institute of Technology-Bharatpur INDROLI, CHHICHHARWADI  KAMAN, BHARATPUR undefined  8058248257  805  Active  31-08-2015    5485.86  14.35 
450 2566 Geetam Singh 2014-Comtech Institute of Technology-Bharatpur ROOPWAS, MILSVA  KHERIYA BILLOCH   9001115145  456  Active  08-10-2015    82.31  28.70 
451 2609 Sunil Kumar 2014-Comtech Institute of Technology-Bharatpur B-NARAYAN GATE DHOBI MOHALLA BHARATPUR    8946908790  1314  Active  30-10-2015    1045.84  147.45 
452 2610 Bharat Saini 2014-Comtech Institute of Technology-Bharatpur PURANA BUY PASS ROAD NAGAR BHARATPUR    8562010240  2289  Active  30-10-2015    1031.97  9.57 
453 2611 Dashrath 2014-Comtech Institute of Technology-Bharatpur RUDABAL ROAD JUHGLA PATTI,UCHCHAIN  RUPBAS BHARATPUR    8504085436  22  Active  30-10-2015    7.09  329.95 
454 2629 Gulshan Singal 2014-Comtech Institute of Technology-Bharatpur B.NARAYAN GATE,ATAL BANDH ROAD BHARATPUR   7791033074  113  Active  05-11-2015    1.34  9.57 
455 2630 Hitesh Kumar 2014-Comtech Institute of Technology-Bharatpur WARD NO. 19, SONPURA TILAK NAGAR BHARATPUR   9587827377  3842  Active  05-11-2015    .91  1471.89 
456 2631 Tulsi Das 2014-Comtech Institute of Technology-Bharatpur PANDURI,CHENKARA RUPWAS,BHARATPUR undefined  9166693895  Active  05-11-2015    390.5  0.23 
457 2632 Prem Chand Saini 2014-Comtech Institute of Technology-Bharatpur KANJALI LINE DEEG ROAD BHARATPUR    9680883288  Active  05-11-2015    .69  2582.61 
458 2652 Vikas Agarwal 2014-Comtech Institute of Technology-Bharatpur NEAR GANDHI PARK, PAL BAGH  BHARATPUR   8441982575  14  Active  24-11-2015    .69  898.21 
459 2655 Madhvendra Kumar 2014-Comtech Institute of Technology-Bharatpur BEHIND OLD LAXMAN MANDIR, BHARATPUR    7610921914  Active  24-11-2015    .98  98.76 
460 2716 Gokulesh Katara 2014-Comtech Institute of Technology-Bharatpur SUBHASH NAGAR NEAR ADITI CLINIC, GOLPURA ROAD BHARATPUR    7740818852  349  Active  08-12-2015    276.93  0.17 
461 2741 Mazzal Khan 2014-Comtech Institute of Technology-Bharatpur VILL- JATWAS, UDKI DALLA  NAGAR, BHARATPUR undefined  9672281484  5302  Active  14-12-2015    14.9  1040.76 
462 2743 Indrajeet Singh 2014-Comtech Institute of Technology-Bharatpur Santruk Kumher Bharatpur    9785615761  118  Active  14-12-2015    108.47  263.04 
463 2767 Laxman Singh 2014-Comtech Institute of Technology-Bharatpur AGRASEN SCHOOL KE PASS, SUBHASH NAGAR   BHARATPUR   8058202702  1465  Active  04-01-2016    2068.07  444.73 
464 2768 Gulab Singh 2014-Comtech Institute of Technology-Bharatpur GP- GULPADA, BLOCK- NAGARR  BHARATPUR   8741081160  46  Active  04-01-2016    339.65  27.93 
465 2795 Teerath Raj 2014-Comtech Institute of Technology-Bharatpur SALPURPATHI , SIKARI NAGAR, BHARATPUR undefined  9549083991  160  Active  06-01-2016    1.23  54.10 
466 2796 Umesh Chand Saini 2014-Comtech Institute of Technology-Bharatpur VILL- NAYAMADPUR, POST- DHARSONI  WEIR , BHARATPUR undefined  9571805384  Active  06-01-2016    2265.76  0.00 
467 2797 Hitesh Goyal 2014-Comtech Institute of Technology-Bharatpur SUB TEHSIL OFFICE PARAH, BHARATPUR    7891307585  140  Active  06-01-2016    758.39  14.35 
468 2798 Jeetesh Kumar 2014-Comtech Institute of Technology-Bharatpur VPO- KHARERA, UCHAIN   ROOPWAS, BHARATPUR undefined  9887546526  830  Active  06-01-2016    .05  583.48 
469 2799 Sanjay Singh Yadav 2014-Comtech Institute of Technology-Bharatpur VILL- GULPADA, NAGAR  BHARATPUR   9928795656  787  Active  06-01-2016    1.35  101.21 
470 2800 Harvendra Kumar 2014-Comtech Institute of Technology-Bharatpur Atal Sewa Kendra, Gram Pachayat Dumariya Tehsil Roopwas, Bharatpur   9983939425  680  Active  06-01-2016    1383.63  0.00 
471 2801 Munfaid Khan 2014-Comtech Institute of Technology-Bharatpur JUMMA BANAINI DHONLKA, PADALWAS  TEH-NAGAR, BHARATPUR undefined  9610567110  218  Active  06-01-2016    .67  47.83 
472 2802 Vishnu Kumar 2014-Comtech Institute of Technology-Bharatpur GP- SOUMKA, TEH- KAMAN  BHARATPUR   9672439280  Active  06-01-2016    1518  4.90 
473 2804 Parshottam 2014-Comtech Institute of Technology-Bharatpur KANWARA , TEHSIL- KAMAN  BHARATPUR   8740976447  1317  Active  06-01-2016    195.21  406.52 
474 2805 Sirajuddin 2014-Comtech Institute of Technology-Bharatpur ATAL SEWA KENDRA SOMKA, KAMAN  BHARATPUR   8696614061  Active  06-01-2016    334.54  0.77 
475 2808 Ravindra Singh 2014-Comtech Institute of Technology-Bharatpur NEAR KANNI GURJAR CIRCLE, BHARATPUR    9928902445  877  Active  06-01-2016    .15  832.17 
476 2860 Uttamchand Sharma 2014-Comtech Institute of Technology-Bharatpur ATAL SEVA KENDRA PAR, SEWAR  BHARATPUR   9828356142  667  Active  19-01-2016    42.56  57.39 
477 2861 Devendra Sharma 2014-Comtech Institute of Technology-Bharatpur ATAL SEVA KENDRA PINGORA, NADBAI  BHARATPUR   8739826723  21  Active  19-01-2016    1651.51  602.61 
478 2868 Veerendra Kumar 2014-Comtech Institute of Technology-Bharatpur BYANA ROAD JARILA, BHAWANPURA  ROOPBAS, BHARATPUR undefined  9772300192  Active  25-01-2016    .16  159.72 
479 2869 Omprakash 2014-Comtech Institute of Technology-Bharatpur EMITRA PAY POINT NAGLA MAI, GP- MAI  NADMAI, BHARATPUR undefined  9001126308  Active  25-01-2016    26  0.00 
480 2875 Bajib 2014-Comtech Institute of Technology-Bharatpur VILL DUNAWAL, NAGAR   BHARATPUR   9057977653  Active  28-01-2016    .75  0.00 
481 2876 Lavesh Mudgal 2014-Comtech Institute of Technology-Bharatpur SHARMA EMITRA KENDRA, KHEDIYA MODE  NADBAI, BHARATPUR undefined  7737303119  1921  Active  28-01-2016    .43  181.74 
482 2877 Rajveer Singh 2014-Comtech Institute of Technology-Bharatpur NET WEB SOFT EMITRA CENTER, NEAR SARAS HOTEL  VIJAYNAGAR, BHARATPUR undefined  8233196869  398  Active  28-01-2016    378.83  5.50 
483 2878 Balram Singh 2014-Comtech Institute of Technology-Bharatpur BAJRANG ROJGAR CENTER, BACHHAMADI  SEWAR, BHARATPUR undefined  9549959201  65  Active  28-01-2016    59.85  19.13 
484 2880 Mubeen Khan 2014-Comtech Institute of Technology-Bharatpur ATAL SEVA KENDRA PAPRA, TEH- PAHARI  BHARATPUR   9887345240  Active  28-01-2016    3193.75  0.00 
485 2881 Vivek Kumar 2014-Comtech Institute of Technology-Bharatpur ATAL SEVA KANDRA DAHINA GAUV,ROOPBAS BHARATPUR   8058329140  352  Active  28-01-2016    64.03  33.48 
486 2882 Pramod Yadav 2014-Comtech Institute of Technology-Bharatpur ATAL SEWA KENDRA JHAROLI, SEWAR  BHARATPUR   8432182838  Active  28-01-2016    426.37  0.00 
487 2902 Anil Kumar 2014-Comtech Institute of Technology-Bharatpur NEAR BUS STAND PAHARI,BHARATPUR    9509274849  10  Active  02-02-2016    1923.09  0.00 
488 2904 Pramod Kumar 2014-Comtech Institute of Technology-Bharatpur VPO EAWARA KUMHER,BHARATPUR    9667429101  Active  02-02-2016    68.25  68.60 
489 2905 Satyendra Singh 2014-Comtech Institute of Technology-Bharatpur VILL-MUDHERA,BHARATPUR    9460925072  500  Active  02-02-2016    .22  203.50 
490 2936 Jitendra Kumar 2014-Comtech Institute of Technology-Bharatpur E-MITRA PAY POINT JURHARIGP:PAI, KAMAN BHARATPUR    8440810723  Active  04-02-2016    1.37  31.94 
491 2985 Susheela Devi 2014-Comtech Institute of Technology-Bharatpur E-MITRA PAY POINT BIRAR GP:SABLANA KAMAN BHARATPUR    9680135253  Active  09-02-2016    1.74  4.56 
492 3005 Robin Kumar 2014-Comtech Institute of Technology-Bharatpur ROBIN EMITRA CENTER, NEAR BUS STAND  KHUMHER, BHARATPUR undefined  7691804811  55  Active  11-02-2016    .93  81.30 
493 3008 Dharm Singh 2014-Comtech Institute of Technology-Bharatpur CHHOTE RAM JI MANDIR, HIGH SCHOOL KE PASS  KAMAN, BHARATPUR undefined  9549914172  1850  Active  12-02-2016    36.16  38.34 
494 3010 Bhola Ram 2014-Comtech Institute of Technology-Bharatpur NIKKI COMPUTERS & EMITRA CENTER NAJDEEKI PETROL PUMP KE SAMNE, PAHARI  BHARATPUR   9529825570  Active  12-02-2016    563.25  0.00 
495 3011 Tej Singh Yadav 2014-Comtech Institute of Technology-Bharatpur GP-BERRU,TEH-NAGAR BHARATPUR   9772676379  Active  12-02-2016    208.88  0.00 
496 3012 Abhay Singh Chaudhary 2014-Comtech Institute of Technology-Bharatpur ATAL SEVA KENDRA , WEIR  BHARATPUR   9929452588  100  Active  12-02-2016    38.26 
497 3013 Monu Kumar 2014-Comtech Institute of Technology-Bharatpur ATAL SEWA KENDRA KHEDI DEVI SINGH, NADBAI  BHARATPUR   8386840056  139  Active  12-02-2016    2.02  0.08 
498 3014 Manoj Kumar Yadav 2014-Comtech Institute of Technology-Bharatpur ATAL SEWA KENDRA, BERRO  BHARATPUR   9828741131  1501  Active  12-02-2016    28.67  9.57 
499 3050 Kumarpal 2014-Comtech Institute of Technology-Bharatpur VPO- BARAHI, DEEG  BHARATPUR   9887691796  Active  17-02-2016    .97  267.83 
500 3051 Neha Jain 2014-Comtech Institute of Technology-Bharatpur INDRA CHOWK KUMHER,TEH-KUMHER BHARATPUR   9460877077  223  Active  17-02-2016    .59  96.37 
501 3072 Ramgopal Singh 2014-Comtech Institute of Technology-Bharatpur E-MITRA PAY POINT KARUA GP:TAMRER, KUMHER BHARATPUR    8426919293  Active  23-02-2016    84.75  0.00 
502 3096 Zakir Husain 2014-Comtech Institute of Technology-Bharatpur EMITRA PAY POINT RANIYALA,GP-JAISHREE PS-NAGAR,BHARATPUR undefined  9772307016  Active  29-02-2016    0.00 
503 3097 Rajender Kumar 2014-Comtech Institute of Technology-Bharatpur SHIVAM STUDIO , SAHYOG NAGAR  BHARATPUR   9785613357  Active  29-02-2016    .27  101.21 
504 3143 Nagendra Singh 2014-Comtech Institute of Technology-Bharatpur Heeradas Central Bus Stand Ke Samne, Khadi Bhandar Ki Bagal Main  Bharatpur   9166862393  9756  Active  03-03-2016    .52  1840.54 
505 3160 Harish Khan 2014-Comtech Institute of Technology-Bharatpur Village ,Bhori Bhartpur    9996395786  Active  09-03-2016    0.00 
506 3161 Imran 2014-Comtech Institute of Technology-Bharatpur VILL-SIKRI,PS-NAGAR BHARATPUR   7732861901  Active  09-03-2016    0.00 
507 3284 Sirajuddin 2014-Comtech Institute of Technology-Bharatpur VILL-DHANA,GP-SOMKA TEH-PAHARI,BHARATPUR undefined  8696614061  Active  01-04-2016    0.00 
508 3285 Mustufa 2014-Comtech Institute of Technology-Bharatpur EMITRA PAY POINT KHERIL NANOO,GP-GHOSEENGA PS-PAHAI,BHARATPUR undefined  8058532828  Active  01-04-2016    0.00 
509 3360 Saurabh Kumar 2014-Comtech Institute of Technology-Bharatpur NEAR BAGARWALA SHOWROOM,OLD LAXMAN MANDIR BHARATPUR   8058577992  2659  Active  14-04-2016    181.8  240.52 
510 3393 Satyapal Harsainia 2014-Comtech Institute of Technology-Bharatpur TODAY INFORMATICS CENTER, INDRA NAGAR  HEERADAS, BHARATPUR undefined  7597412603  2234  Active  21-04-2016    .53  335.45 
511 3459 Savir 2014-Comtech Institute of Technology-Bharatpur SAVIR EMITRA CENTER, JURHERA   PAHARI, BHARATPUR undefined  9587689025  Active  05-05-2016    0.00 
512 3460 Bhawani Singh Yadav 2014-Comtech Institute of Technology-Bharatpur VPO- PALKA, TEH- NAGAR  BHARATPUR   9672831095  500  Active  05-05-2016    1500  0.00 
513 3461 Yogesh 2014-Comtech Institute of Technology-Bharatpur BEHIND ANAND SCHOOL, SHASTRI NAGAR   BHARATPUR   8385999640  1071  Active  05-05-2016    1005.9  55.00 
514 3470 Manish 2014-Comtech Institute of Technology-Bharatpur ATAL SEVA KENDRA BARAI, DEEG  BHARATPUR   8440017001  817  Active  10-05-2016    169.54 
515 3509 Mahendra Kumar 2014-Comtech Institute of Technology-Bharatpur SIKARI CHAK NO 1,VILL-SIKARI PS-NAGAR,BHARATPUR undefined  9667935096  1985  Active  24-05-2016    14.35 
516 3510 Ajay Singh 2014-Comtech Institute of Technology-Bharatpur NIDHI EMITRA CENTER, VILL- MAHARAIPUR  POST- JHANJHAR, TEH- NAGAR  BHARATPUR  9610081240  Active  24-05-2016    0.00 
517 3511 Manga Ram Saini 2014-Comtech Institute of Technology-Bharatpur BHARATI EMITRA CENTER, VPO- SIKARI  TEH- NAGAR, BHARATPUR undefined  7891822503  Active  24-05-2016    0.00 
518 3512 Pankaj Sharma 2014-Comtech Institute of Technology-Bharatpur 351, RAJENDRA NAGAR  BHARATPUR   9024151282  Active  24-05-2016    0.00 
519 3513 Rajesh Kumar Gaur 2014-Comtech Institute of Technology-Bharatpur NEAR PNB BANK JURHERA, KAMAN  BHARATPUR   9460318717  Active  24-05-2016    0.00 
520 3525 Love Kumar 2014-Comtech Institute of Technology-Bharatpur EMITRA PAY POINT JAREELA,GP- BHAVANPURA  RUPBAS, BHARATPUR  undefined  9982751032  Active  25-05-2016    0.00 
521 3530 Shivjeet 2014-Comtech Institute of Technology-Bharatpur ANAND NAGAR, SEWAR BYPASS  BHARATPUR   9887996296  1737  Active  26-05-2016    5.50 
522 3533 Than Singh 2014-Comtech Institute of Technology-Bharatpur ATAL SEWA KENDRA, SOGAR  KUMHER, BHARATPUR undefined  9782063329  Active  27-05-2016    0.00 
523 3542 Pradeep Kumar Saini 2014-Comtech Institute of Technology-Bharatpur BANKEY BIHARI EMITRA CENTER, NEAR CANERA BANK  NADBAI, BHARATPUR undefined  8963891892  512  Active  30-05-2016    287.43 
524 3621 Jakir Hussain 2014-Comtech Institute of Technology-Bharatpur Atal Seva Kendra Ladlaka, Tehsil - Pahari  Bharatpur   9549168775  Active  27-06-2016    0.00 
525 3622 Pramod Kumar 2014-Comtech Institute of Technology-Bharatpur NEAR NAND PETROL PUMP, PAHARI ROAD  KAMAN , BHARATPUR undefined  9680195434  Active  27-06-2016    0.00 
526 3623 Sumundara Singh 2014-Comtech Institute of Technology-Bharatpur AMBEDKAR CHOK, TEH-KAMAN  BHARATPUR   9785687903  Active  27-06-2016    0.00 
527 3624 Shri Ram Sharma 2014-Comtech Institute of Technology-Bharatpur NEAR HINDI PUSTKALAY, NEEM GHATA MOHALLA  DEEG, BHARATPUR undefined  7568373839  Active  27-06-2016    0.00 
528 3625 Tejpal 2014-Comtech Institute of Technology-Bharatpur BHUDA GATE , DEEG BHARATPUR    9785621522  Active  27-06-2016    0.00 
529 3626 Karan Singh Choudhary 2014-Comtech Institute of Technology-Bharatpur VPO- BARASO, BHARATPUR    9783826851  Active  27-06-2016    0.00 
530 3627 Lokendra Mauhviya 2014-Comtech Institute of Technology-Bharatpur VILL- BAROLI CHOUITH, DEEG   BHARATPUR   9929750657  Active  27-06-2016    0.00 
531 3628 Devendra Singh 2014-Comtech Institute of Technology-Bharatpur Ashu Foujdar Emitra Centre, V&P. Rarah  Tehsil - Kumher, Bharatpur undefined  8740888728  Active  27-06-2016    0.00 
532 1434 Pushpendra Kumar 2014-CMS eMitra-Bharatpur Main Kachari Road Bayana Dis. Bharatpur    05648-225122  2004  Active  02-03-2015    2.65  430.43 
533 1435 Yashwant Yadav 2014-CMS eMitra-Bharatpur GARM BISDA POST JHAROLI SEWAR BHARATPUR    8432182838  44  Active  02-03-2015    107.44  55.48 
534 1511 Mahesh Chand 2014-CMS eMitra-Bharatpur Gram Sendhli Weir Bharatpur    9887091919  Active  25-03-2015    6.66  665.10 
535 1512 Bhagwan Singh 2014-CMS eMitra-Bharatpur Gram Itamda Bhusawar Bharatpur    9887847501  1305  Active  25-03-2015    24737.18  526.09 
536 2134 Naresh Chand Gupta 2014-CMS eMitra-Bharatpur KAKAJI MARKET KE PASS CHOUBURJA BAZAR BHARATPUR    9413650001  36  Active  14-05-2015    1073.44  368.23 
537 2221 Indar Singh 2014-CMS eMitra-Bharatpur GRAM-GIVINDPURA POST-MUHARI WEIR BHARATPUR    05643272582  874  Active  29-05-2015    59.2  563.23 
538 2223 Jitendra Prakash 2014-CMS eMitra-Bharatpur Jawahar Nagar Bharatpur     8829839877  Active  29-05-2015    23.98  0.00 
539 2481 Govind Singh 2014-CMS eMitra-Bharatpur BAGHEL PHOTO STATE,HELAK CHORAHA  SAVER, BHARATPUR undefined  9785139859  1145  Active  28-08-2015    6.74  632.02 
540 2592 Prabhu Dayal 2014-CMS eMitra-Bharatpur GRAM PANHORI TEH. DEEG BHARATPUR    9785622773  7645  Active  19-10-2015    25.5  4.78 
541 2634 Manoj Kumar Katara 2014-CMS eMitra-Bharatpur Ganpati Market Anah Gate Bharatpur Raj.    9461462215  51  Active  06-11-2015    1500.82  157.83 
542 3057 Rajkumar 2014-CMS eMitra-Bharatpur Umra,Au.Deeg Bharatpur   9982240193  Active  17-02-2016    0.00 
543 3374 Vishal 2014-CMS eMitra-Bharatpur Vishal Emitra Center Binarayan Gate Bharatpur    8502879450  185  Active  18-04-2016    118.76  440.00 
544 3429 Suresh Chand 2014-CMS eMitra-Bharatpur Emitra Pay PointGram Arauda Hantra Nadbai Bharatpur    9057778495  Active  29-04-2016    0.00 
545 3430 Pooran Singh 2014-CMS eMitra-Bharatpur Emitra Pay PointGram Sadhpura Purwai Kheda Bayana Bharatpur    7690951414  Active  29-04-2016    0.00 
546 3431 Ramveer Singh 2014-CMS eMitra-Bharatpur Emitra Pay PointGram Thikariya Brodha Bayana Bharatpur    8696546769  Active  29-04-2016    0.00 
547 3432 Jawahar Singh 2014-CMS eMitra-Bharatpur Emitra Pay PointGram Bhootka Muriya Nagar Bharatpur    9929816348  Active  29-04-2016    0.00 
548 3433 Sunil Kumar 2014-CMS eMitra-Bharatpur Emitra Pay PointGram Sasaina Weir Bharatpur    8094505869  Active  29-04-2016    0.00 
549 3436 Meghraj 2014-CMS eMitra-Bharatpur Emitra Pay PointGram Kurkain Aalamshah Nagar Bharatpur    8058912838  Active  29-04-2016    0.00 
550 3437 Lakhan Singh 2014-CMS eMitra-Bharatpur Emitra Pay PointGram Khanpur Jarothi Weir Bharatpur    9549126940  Active  29-04-2016    0.00 
551 3439 Pankaj Kumar Verma 2014-CMS eMitra-Bharatpur Emitra Pay PointGram+Post Bachhren Wair Bharatpur    8441809880  Active  29-04-2016    0.00 
552 3440 Arif Khan 2014-CMS eMitra-Bharatpur Emitra Pay PointGram Arsi Nagar Bharatpur    9672204915  Active  29-04-2016    0.00 
553 3480 Jaiveer Singh 2014-CMS eMitra-Bharatpur Emitra Pay PointGram Habeebpur Post Par Sewar Bharatpur    9460454182  Active  17-05-2016    0.00 
554 3481 Ravindra Kumar Verma 2014-CMS eMitra-Bharatpur Emitra Pay PointGram  Salempur Khurd Post Salempur Khurd The. Bhusawar Bharatpur    8058947783  Active  17-05-2016    0.00 
555 3482 Salman Khan 2014-CMS eMitra-Bharatpur Emitra Pay Point Gram Chak Cheluwa, Fatehpur Nagar Bharatpur    8058481135  Active  17-05-2016    0.00 
556 3483 Jaikam Khan 2014-CMS eMitra-Bharatpur Vill. Semla Kalan, Teh. Nagar  Bharatpur.   9887156024  Active  17-05-2016    0.00 
557 3484 Lekhraj 2014-CMS eMitra-Bharatpur Emitra Pay PointGram Kumharedi Chirawal Mali Nagar Bharatpur    8440029807  Active  17-05-2016    0.00 
558 3485 Islam 2014-CMS eMitra-Bharatpur Emitra Pay PointGram Vadhaka Aalamshah Nagar Bharatpur    9672106851  Active  17-05-2016    0.00 
559 3486 Lakhan Singh 2014-CMS eMitra-Bharatpur Emitra Pay PointGram Nagla Khatka NahroliRudawal Bayana Bharatpur    8058673074  Active  17-05-2016    0.00 
560 3487 Ramveer Singh 2014-CMS eMitra-Bharatpur Emitra Pay PointGram Jaghina Sewar Bharatpur    7222877701  Active  17-05-2016    0.00 
561 3488 Soran Singh 2014-CMS eMitra-Bharatpur Emitra Pay Point Gram Ravidaspura Gangwak Nagar Bharatpur    9772656530  Active  17-05-2016    0.00 
562 3489 Vahid Khan 2014-CMS eMitra-Bharatpur Emitra Pay Point Gram Gahankar Pandaka Nagar Bharatpur    9549811391  Active  17-05-2016    0.00 
563 3490 Shashi Kumar 2014-CMS eMitra-Bharatpur Emitra Pay Point Gram Rund Helak Bari Rund Helak Kumher Bharatpur    8560934380  Active  17-05-2016    0.00 
564 3494 Bhedram 2014-CMS eMitra-Bharatpur V PO Bhandara Teh. Kaman Bharatpur    9672110566  Active  20-05-2016    0.00 
565 3495 Mohammad Ali Khan 2014-CMS eMitra-Bharatpur Emitra Pay PointGram Birgawan Fetehpur Kalan Nagar Bharatpur    9610567121  Active  23-05-2016    0.00 
566 3496 Aslam Khan 2014-CMS eMitra-Bharatpur Emitra Pay PointGram Somsi Fetehpur Kalan Nagar Bharatpur    7665375275  Active  23-05-2016    0.00 
567 3497 Dharam Singh 2014-CMS eMitra-Bharatpur Salempur Khurd, Bharatpur.    7665905955  Active  23-05-2016    0.00 
568 3498 Puspendra Singh 2014-CMS eMitra-Bharatpur Vill. Bagh Ka Nagla.Talphara,Kumher  Bharatpur.   8890666151  Active  23-05-2016    0.00 
569 3499 Gopesh Kumar Jatav 2014-CMS eMitra-Bharatpur Emitra Pay PointGram Uloo Kamalpura Bhusawar Bharatpur    9166708911  Active  23-05-2016    0.00 
570 3500 Omprakash 2014-CMS eMitra-Bharatpur Emitra Pay PointGram Jindpura Baridha Roopwas Bharatpur     8740052097  Active  23-05-2016    0.00 
571 3501 Bachchu Singh 2014-CMS eMitra-Bharatpur Emitra Pay Point Bhagora Lakhanpur Weir Bharatpur    9602599476  Active  23-05-2016    0.00 
572 3502 Ajeet Kumar 2014-CMS eMitra-Bharatpur Emitra Pay PointGram Gunsara Kumher Bharatpur    7792826642  Active  23-05-2016    0.00 
573 3503 Mahendra Singh 2014-CMS eMitra-Bharatpur Emitra Pay Point Gram Vijay Nagar Rundh Helak Bharatpur     9783184960  Active  23-05-2016    0.00 
574 3504 Asalam Khan 2014-CMS eMitra-Bharatpur Emitra Pay Point Gram Veerthala Mudoti Nagar Bharatpur    9928212380  Active  23-05-2016    0.00 
575 833 pradlad shing 2014-Vakrangee-Bharatpur jaya usrani kumher bharatpur   9667039751  968  Active  02-09-2014    .6  496.66 
576 834 moti ram 2014-Vakrangee-Bharatpur khan khera dist:- bharatpur   8890214708  142  Active  02-09-2014    200.4  1340.81 
577 836 pushp lata 2014-Vakrangee-Bharatpur vpo-jharonti block-weit bharatpur  9414681595  Active  02-09-2014    9.44  551.34 
578 837 Shyambeer Chauhan 2014-Vakrangee-Bharatpur vpo-kharera block:-rupbas bharatpur  9414975080  2216  Active  02-09-2014    990.25  44.43 
579 838 radhe shyam 2014-Vakrangee-Bharatpur singhara block bayana bharatpur  9887368316  2413  Active  02-09-2014    3.96  2157.45 
580 839 Pramod Kumar 2014-Vakrangee-Bharatpur VPO - Siras BLOCK - Weirs Dist - Bharatpur  9887223330  12  Active  03-09-2014    101.43  143.48 
581 844 Raj kumar 2014-Vakrangee-Bharatpur VPO - Reethauthi Block - Kunher Dist - Bharatpur  9783924366  Active  03-09-2014    15.97  393.80 
582 848 Ravindra Kumar Meena 2014-Vakrangee-Bharatpur VPO- Chaintoli, Block - Weir Dist. - Bharatpur  9468666284  115  Active  04-09-2014    4582.36  913.37 
583 849 Ashok Lawaniya 2014-Vakrangee-Bharatpur VPO- Halena,  Block - Weir Dist. - Bharatpur  9414903955  1272  Active  04-09-2014    359.85  4063.30 
584 850 Uttam Singh 2014-Vakrangee-Bharatpur nagla Tehriy An Mafi F/P-N Tehriy A Mafi Block - Rupbas Disst. - Bharatpur  9828911272  47  Active  04-09-2014    23813.97  0.67 
585 851 Vipin Kumar 2014-Vakrangee-Bharatpur sikandara Block - Bayana Disst. - Bharatpur  8094283058  47  Active  04-09-2014    .81  65.13 
586 852 Raju Singh 2014-Vakrangee-Bharatpur Takha, G/P - Ta Kha  block - Kumher Disst. - Bharatpur  9694341720  3226  Active  04-09-2014    3280.73  924.89 
587 853 Lokesh Kumar 2014-Vakrangee-Bharatpur Kot  Bayana Bharatpur  9799320408  10  Active  04-09-2014    744.44  0.00 
588 854 Prathveeraj 2014-Vakrangee-Bharatpur Baroda Ayana Disst. - Bhartpur  8003686804  4063  Active  04-09-2014    526.4  14.35 
589 903 Gaurav Kumar 2014-Vakrangee-Bharatpur VPO- Khandewla Block - Nagar Dist. - Bharatpur  9461080611  185  Active  17-09-2014    9897.7  130.34 
590 904 Haripal 2014-Vakrangee-Bharatpur Ward No. 13  Naharganj mohalla Kumher Bharatpur  9460659190  701  Active  17-09-2014    .42  621.74 
591 905 Naresh Kumar Sharma 2014-Vakrangee-Bharatpur Gangora, Nagar Bharatpur  8094577032  994  Active  17-09-2014    406.44  850.16 
592 906 Rajesh Kumar 2014-Vakrangee-Bharatpur Nagla Heeradas, Opp Numaish Ground Bharatpur  9309314407  109  Active  17-09-2014    19.3  272.56 
593 922 PRADEEP SINGH 2014-Vakrangee-Bharatpur Ward no 16 Neeraj Mishthan Bhandhar Ke Pichhe Kumher Bhartpur   9166545061  967  Active  19-09-2014    .33  550.00 
594 925 Poonam Chand Saini 2014-Vakrangee-Bharatpur Barauli  Weir,Bharatpur   9782754965  68  Active  20-09-2014    82.9  43.04 
595 926 Rajendra Kumar Sharma 2014-Vakrangee-Bharatpur Sharma Computers, Khodi Mod Deeg Road, Nagar Bharatpur  9828537748  5547  Active  20-09-2014    .58  1224.82 
596 935 Bhagwan Singh Meena 2014-Vakrangee-Bharatpur Barkhera  Bayana Bharatpur  9414890478  115  Active  26-09-2014    8485.96  1541.50 
597 936 Anil Kumar Mathur 2014-Vakrangee-Bharatpur Mathur Internet & Emitra Center Basan Gate Kotwali Bharatpur  9571511899  9201  Active  26-09-2014    .61  1878.32 
598 937 Khushi Ram 2014-Vakrangee-Bharatpur Nagla Beeja Rupbas Bharatpur  9784309994  21  Active  26-09-2014    67.13  845.93 
599 938 RAJENDRA DAGUR 2014-Vakrangee-Bharatpur Dagur emitra V/P nagar Teh- nagar near govt hospital Bhartpur   9667175659  7453  Active  26-09-2014    .09  239.80 
600 939 Sanjay Singh 2014-Vakrangee-Bharatpur Peepla Sewar Bharatpur  9782599434  135  Active  26-09-2014    183.56  202.48 
601 941 SHER SINGH 2014-Vakrangee-Bharatpur Cheema emitra Nand Hotel ke pass ward no 19 Bhartpur   9828580712  7327  Active  26-09-2014    1.43  2532.87 
602 943 JUGAL BIHARI 2014-Vakrangee-Bharatpur Purohit emitra center kotwali bazar near sitaramji mandir Bhartpur   9783319205  3831  Active  26-09-2014    .36  140.61 
603 945 SANJAY KUMAR 2014-Vakrangee-Bharatpur Sanjay emitra Ward no 05 Near Panchyat Samiti Sewar Bhartpur   9928816222  24892  Active  26-09-2014    28.85  263.04 
604 946 JITENDRA KUMAR 2014-Vakrangee-Bharatpur Jitendra emitra center Kumher Bhartpur   8003601746  1369  Active  26-09-2014    .47  1427.25 
605 959 Shiv Kumar Sharma 2014-Vakrangee-Bharatpur Marauli, Rupbas Bharatpur   9785719204  788  Active  08-10-2014    .9  2110.56 
606 968 Rohit Sharma 2014-Vakrangee-Bharatpur Tilak Nagar Bharatpur   8003391909  13530  Active  09-10-2014    627.03  28.70 
607 969 Paras Ram Saini 2014-Vakrangee-Bharatpur Near Bus Stand Deeg Bharatpur   9529003555  2087  Active  09-10-2014    747.27  57.39 
608 971 Rakesh 2014-Vakrangee-Bharatpur Sarvodya Nagar,ricco Road Bharatpur   9782505906  1133  Active  09-10-2014    .75  33.48 
609 1024 Manoj Kumar 2014-Vakrangee-Bharatpur Kumher Road Bohra Market,Bharatpur    9983664711  759  Active  29-10-2014    574.78  694.34 
610 1025 Kali Charan 2014-Vakrangee-Bharatpur Jahangeerpur,Nadbai,Bharatpur     9602761341  886  Active  29-10-2014    28060.64  476.45 
611 1026 Parasram 2014-Vakrangee-Bharatpur Talchhera,Nadbai,Bharatpur    9667865574  1525  Active  29-10-2014    135.46  57.98 
612 1049 Bhupendra Singh 2014-Vakrangee-Bharatpur Padawali,Bayana Bharatpur   9636059531  137  Active  21-11-2014    .12  0.00 
613 1054 Hemendra Kumar 2014-Vakrangee-Bharatpur VPO-Dandoo,Block-Kumher Distt.-Bharatpur   9785202112  Active  21-11-2014    28.41  33.48 
614 1055 Jitendra Singh 2014-Vakrangee-Bharatpur VPO-Thana Dang,Block-Bayana Distt.-Bharatpur   8740979934  221  Active  22-11-2014    300.1  304.88 
615 1056 Irfan 2014-Vakrangee-Bharatpur VPO-Nagla Kundan,Block-Kaman Distt.-Bharatpur   9982562793  700  Active  22-11-2014    76.1  268.41 
616 1063 Jagat Singh 2014-Vakrangee-Bharatpur VPO-Karwari,Block-Bayana Distt.-Bharatpur   9875036609  Active  25-11-2014    -22.15  0.00 
617 1070 Anil Kumar 2014-Vakrangee-Bharatpur Anil Emitra,Bapu Bazar Nagar,Bharatpur undefined  9784397159  6474  Active  26-11-2014    82.75  1001.72 
618 1071 Saurabh Godha 2014-Vakrangee-Bharatpur Near Kotwali,Chauturja Bharatpur   9509618018  7837  Active  26-11-2014    79.27  7327.67 
619 1084 Sarita 2014-Vakrangee-Bharatpur Bahra Rekhapur,Rupbas Bharatpur   8058592215  11  Active  27-11-2014    659.32  0.00 
620 1085 Kapil Goyal 2014-Vakrangee-Bharatpur BAYANA, BHARATPUR   RAJASTHAN,PIN CODE NO - 321401 undefined  9667548958  Active  27-11-2014    12.66  39.97 
621 1087 Hemant Kumar 2014-Vakrangee-Bharatpur Nigohi,Deeg Bharatpur   8239774703  Active  27-11-2014    1631.26  0.00 
622 1089 Raju Pachahara 2014-Vakrangee-Bharatpur Bandha Chauth,Deeg Bharatpur   9413590442  Active  27-11-2014    .75  47.83 
623 1091 Ravi Kumar 2014-Vakrangee-Bharatpur Nahroli Deshwar,Shishwada Deeg,Bharatpur undefined  8875023730  8798  Active  27-11-2014    701.06  124.56 
624 1103 Pushpendra Singh 2014-Vakrangee-Bharatpur Piprau,Block-NAdbai Distt.-BharatpUr   9166662311  Active  04-12-2014    0.00 
625 1104 Narendra Kumar 2014-Vakrangee-Bharatpur VPO-Sedpura,Block-Rupbas Distt.-Bharatpur   05645276427  4960  Active  04-12-2014    .57  1436.50 
626 1114 Bhag Chand Saini 2014-Vakrangee-Bharatpur Chak Dharsoni,Block-Weir Distt.-BhAratpur   9414758409  172  Active  11-12-2014    .73  989.79 
627 1115 Pradeep Kumar 2014-Vakrangee-Bharatpur Agarwal Printer,Weir Bharatpur   9414713614  23  Active  11-12-2014    1000.26  5.50 
628 1116 Rajkumar 2014-Vakrangee-Bharatpur Malipura,Sewar Bharatpur   9782734407  587  Active  11-12-2014    69.57  29.03 
629 1128 Harish Kumar 2014-Vakrangee-Bharatpur VPO-Rarah,Block-Kumher Distt.-Bharatpur   9782506026  1155  Active  18-12-2014    9.62  1248.26 
630 1129 Areef Khan 2014-Vakrangee-Bharatpur Malki,Nagar Bharatpur   9828171290  10  Active  18-12-2014    66.63  33.32 
631 1136 Jitendra Singh 2014-Vakrangee-Bharatpur Village Nonera Thesil Kaman    7690908990  102  Active  19-12-2014    .35  315.65 
632 1137 Rahul Bansal 2014-Vakrangee-Bharatpur Mangal Colony Rudaval    9875203203  263  Active  19-12-2014    .7  76.99 
633 1138 Hardev Singh 2014-Vakrangee-Bharatpur Village Januthar Deeg Bharatpur    8504925138  Active  19-12-2014    129.31  0.00 
634 1139 Ved Prakash Saini 2014-Vakrangee-Bharatpur Near Tehsil Kaman    05641230758  298  Active  19-12-2014    .31  401.74 
635 1140 Hitesh Garg 2014-Vakrangee-Bharatpur Jurhera Kaman    9549677294  4006  Active  19-12-2014    3500.5  370.41 
636 1219 Rajveer Singh 2014-Vakrangee-Bharatpur RARODA , KHAN KHEDA  BAYANA ,BHARATPUR undefined  9828835905  316  Active  22-12-2014    70.39  418.23 
637 1221 Shailender Kumar Saini 2014-Vakrangee-Bharatpur Nai Sadak Deeg    05641220230  1095  Active  23-12-2014    3315.36  2184.43 
638 1232 Ashish Kumar 2014-Vakrangee-Bharatpur VPO-Gurdha Nadi,Block-Bayana Distt.-Bharatpur   8290557872  134  Active  26-12-2014    106.12  40.71 
639 1238 Ram Babu 2014-Vakrangee-Bharatpur Near Chotala Ki Shop  Subhash Nagar Bharatpur   9680834848  2165  Active  29-12-2014    .38  2583.56 
640 1239 Hem Kumar 2014-Vakrangee-Bharatpur Bhuda Gate Deeg    05641220016  4293  Active  29-12-2014    29.45  1713.12 
641 1240 Gulshan Sharma 2014-Vakrangee-Bharatpur Rajiv Gandhi Seva Kendra Village Post Bachhmadi(Noh)Bharatpur    7611851998  19  Active  29-12-2014    .89  267.83 
642 1242 Suneel Kumar 2014-Vakrangee-Bharatpur INFRONT OF SBBJ BANK, ARYA SAMAJ ROAD  BAYANA, BHARATPUR undefined  8432663479  90  Active  07-01-2015    1391.68  640.87 
643 1243 Subran Singh 2014-Vakrangee-Bharatpur JANOOTHAR, TEHSIL - DEEG  BHARATPUR   9829547617  Active  07-01-2015    .11  210.43 
644 1247 Navdeep Singh 2014-Vakrangee-Bharatpur RAJIV GANDHI KENDRA KHER,BAYANA BHARATPUR(RAJASTHAN)   9694716874  25  Active  07-01-2015    10.78  1749.79 
645 1248 Raju Lal 2014-Vakrangee-Bharatpur Ghor Mahua Sawer    7891035727  2546  Active  07-01-2015    100.26  769.78 
646 1262 Manish Chhabra 2014-Vakrangee-Bharatpur SHIV NAGAR, BEHING SINGHAL OIL MILL  BHARATPUR   8854878487  1298  Active  10-01-2015    .38  278.35 
647 1264 Akhalesh Kumar 2014-Vakrangee-Bharatpur GARG CYBER ZONE, ATALBAND  BHARATPUR   9549973808  313  Active  10-01-2015    .66  176.96 
648 1268 Mohit Kumar 2014-Vakrangee-Bharatpur Near Pashu Hosptal, Kachahari Road  Bharatpur   9461868469  14498  Active  12-01-2015    .71  7714.05 
649 1280 Girish Kumar 2014-Vakrangee-Bharatpur INFRONT OF SAMUDAYAK BHAWAN, RIICO ROAD  BHARATPUR   8952043136  553  Active  16-01-2015    .56  649.96 
650 1289 Dharmender Singh 2014-Vakrangee-Bharatpur VPO-Pali,Block-Weir Distt.-Bharatpur   9928134310  1255  Active  21-01-2015    86.88  362.02 
651 1290 Sakir Husain 2014-Vakrangee-Bharatpur Ladamka,Nagar Bharatpur   9772603960  2062  Active  21-01-2015    .2  3480.56 
652 1291 Ganga Singh Yadav 2014-Vakrangee-Bharatpur VPO-Dhilawati,Block-Kaman Distt.-Bharatpur   7568257478  39  Active  21-01-2015    .49  299.32 
653 1292 Ram Gopal 2014-Vakrangee-Bharatpur INFRONT OF MSJ COLLAGE, BHARATPUR    9782290010  3379  Active  21-01-2015    8.46  499.02 
654 1295 Mohini Dubey 2014-Vakrangee-Bharatpur Behind Kendriya Bus Stand, Bharatpur    8058276502  1213  Active  22-01-2015    104.95  169.54 
655 1298 Sachin Khandelwal 2014-Vakrangee-Bharatpur Deeg Road Kumher    9024221353  4395  Active  22-01-2015    .75  2315.74 
656 1299 Lokesh Singh 2014-Vakrangee-Bharatpur Village Toda Post Hingota Deeg Bharatpur     8441097557  790  Active  22-01-2015    1737.48  126.62 
657 1300 Nagendra Singh 2014-Vakrangee-Bharatpur Village Jatoli Thoon Deeg Bharatpur    8239320003  Active  22-01-2015    .12  48.06 
658 1301 Akhalesh Kumar 2014-Vakrangee-Bharatpur Near Lal Darbaja Bayana Bharatpur    9672575195  54  Active  22-01-2015    .03  24.63 
659 1302 Manoj Kumar 2014-Vakrangee-Bharatpur Ward-08,Vijay Nagar Colony Bharatpur   9785050703  927  Active  22-01-2015    3.24  1275.00 
660 1303 Ramendra Singh 2014-Vakrangee-Bharatpur NEAR COLLECTRATE CAMPUS, BHARATPUR    8058468405  580  Active  22-01-2015    .62  478.26 
661 1304 Ranjeet Singh 2014-Vakrangee-Bharatpur IT KENDRA, HATHAINI  BLOCK- SEWAR, BHARATPUR undefined  9887962044  8462  Active  22-01-2015    .25  1104.82 
662 1305 Rameshwar 2014-Vakrangee-Bharatpur IT KENDRA, GHUSHYARI  BLOCK- SEWAR, BHARATPUR undefined  8290556585  11  Active  22-01-2015    2299.41  107.80 
663 1306 Gaurav Kumar 2014-Vakrangee-Bharatpur Anah Gate Pather Ki Taal Bharatpur    9887126355  Active  23-01-2015    .22  7499.41 
664 1318 Govind 2014-Vakrangee-Bharatpur SHERGADH,BAYANA BHARATPUR   9413312658  914  Active  30-01-2015    1.33  1527.25 
665 1319 Mukesh Kumar Dubey 2014-Vakrangee-Bharatpur WARD-02,BEHIND BUS DEPOT HELAR HOUSE,SUBHASH NAGAR BHARATPUR  9414889065  98  Active  30-01-2015    2219.47  0.00 
666 1326 Niranjan Lal Gauttam 2014-Vakrangee-Bharatpur 31,Kalyan Mauhlla Kaman,Bharatpur undefined  9828025135  808  Active  03-02-2015    .22  707.82 
667 1327 Ramesh Singh 2014-Vakrangee-Bharatpur VIL-KHANSWARA POST -PAPRERA TEH-KUMHER DIST-BHARATPUR    9636191024  894  Active  03-02-2015    5644.67  86.85 
668 1328 Dinesh Kumar 2014-Vakrangee-Bharatpur Dinesh Emitra,Infront Of MSJ Collage Bharatpur,Bharatpur undefined  9649103299  19158  Active  03-02-2015    30.92  870.91 
669 1330 Prem Singh 2014-Vakrangee-Bharatpur IT KENDRA, JHAROLI  BLOCK - SEWAR, BHARATPUR undefined  8952013367  212  Active  03-02-2015    1072.62  9.57 
670 1336 Mubarik 2014-Vakrangee-Bharatpur VPO Bhonri The. Pahari Bharatpur    9587773344  760  Active  03-02-2015    13099.49  252.58 
671 1337 Rashid 2014-Vakrangee-Bharatpur Village Nandera Teh. Kaman Bharatpur    8094509630  15  Active  03-02-2015    15.3  14.70 
672 1362 Hari Das 2014-Vakrangee-Bharatpur BEHIND PHOOL SINGH TANT HOUSE, HEERADAS  BHARATPUR   9887540721  689  Active  05-02-2015    .25  673.15 
673 1363 Ajay Singh 2014-Vakrangee-Bharatpur IT KENDRA, MOROLI KALAN  TEH. & DISTRICT - BHARATPUR   9694235107  1289  Active  05-02-2015    2692.12  62.61 
674 1364 Prashan Kumar 2014-Vakrangee-Bharatpur IT KENDRA, BILOTHI  TEHSIL & DISTRICT - BHARATPUR   8696620636  10  Active  05-02-2015    416.43  18.88 
675 1365 Rohtash Kumar 2014-Vakrangee-Bharatpur KASAI MOHALLA, PAHARI  BHARATPUR   8058273926  95  Active  06-02-2015    336.52  68.11 
676 1366 Neeraj Kumar Sharma 2014-Vakrangee-Bharatpur Kaman Bypass Road Neem Ghata Mohalla Deeg    9414695025  743  Active  06-02-2015    870.85  0.00 
677 1367 Kapil Khandelwal 2014-Vakrangee-Bharatpur SHRI RADHE COMMUNICATION, NEW MANDI  BHARATPUR   8890525962  1972  Active  06-02-2015    .67  415.08 
678 1368 Anand Kumar 2014-Vakrangee-Bharatpur SHASHTRI SHALA ROAD, NAGAR  BHARATPUR   129  Active  06-02-2015    .07  1269.17 
679 1369 Rajendra Singh 2014-Vakrangee-Bharatpur AZADPURA, CHAK DHARSONI  WEIR, BHARATPUR undefined  9694508308  3511  Active  06-02-2015    11121.18  506.91 
680 1370 Surjeet Singh 2014-Vakrangee-Bharatpur NEWADA, WEIR  BHARATPUR   9928002775  446  Active  06-02-2015    10502.27  0.00 
681 1371 Braj Gopal 2014-Vakrangee-Bharatpur ALIPUR, BHUSAWAR BHARATPUR   8290853081  9010  Active  06-02-2015    6939.34  400.77 
682 1372 Rakesh Kumar 2014-Vakrangee-Bharatpur RUNDH IKRAN,SEWAR  BHARATPUR   8432670342  135  Active  06-02-2015    73.82  0.00 
683 1373 Harish Kumar 2014-Vakrangee-Bharatpur V & P - JAGHINA, BHARATPUR    9509847007  18408  Active  06-02-2015    .7  1375.14 
684 1374 Vishambhar Singh 2014-Vakrangee-Bharatpur Tyohari,Weir Bharatpur   9414388760  95  Active  06-02-2015    .75  95.65 
685 1375 Govind Sharan 2014-Vakrangee-Bharatpur MAIN BAZAR, OLD SABJI MANDI  DEEG, BHARATPUR undefined  8290540930  21  Active  06-02-2015    .62  0.00 
686 1380 Ramakant Sharma 2014-Vakrangee-Bharatpur Sirrond,Rupbas Bharatpur   9982679225  28  Active  11-02-2015    1000.51  1933.70 
687 1382 Rahul Saini 2014-Vakrangee-Bharatpur VPO-Jhanjhar,Block-Nagar Distt.-Bharatpur   8875023726  Active  12-02-2015    131.7  0.00 
688 1388 Lalit Kumar 2014-Vakrangee-Bharatpur NEAR SARAS CHAURAHA, VIJAY NAGAR  BHARATPUR   8058845059  1030  Active  18-02-2015    1.96  488.97 
689 1400 Dharmendra Kumar 2014-Vakrangee-Bharatpur VPO Pahari Teh. Pahari Bharatpur    9694816516  2908  Active  19-02-2015    8039.8  64.18 
690 1401 Gajendra Singh Chandel 2014-Vakrangee-Bharatpur अटल सेवा केंद्र ग्राम गुहाना तहसील डीग जिला भरतपुर    9694826177  98  Active  19-02-2015    1432.56  209.48 
691 1402 Rahul Dev 2014-Vakrangee-Bharatpur WARD NO. 03, PAHARI  BHARATPUR   950953507  961  Active  19-02-2015    .81  3327.88 
692 1404 Ram Kishan 2014-Vakrangee-Bharatpur V&P- JATOLI RATHBHAN, BLOCK- SEWAR  BHARATPUR   8432422135  10  Active  19-02-2015    71.89  0.00 
693 1409 Vikas Kumar Khandelwal 2014-Vakrangee-Bharatpur Rajiv Gandhi Seva Kendra Panhori    8058926340  29  Active  19-02-2015    .89  71.69 
694 1410 Umesh Chand 2014-Vakrangee-Bharatpur V&P PAR, BLOCK- SEWAR  BHARATPUR   9887750088  137  Active  19-02-2015    34.73  0.00 
695 1411 Dhanpal Singh 2014-Vakrangee-Bharatpur V&P- KATHAUL, PAHARI  BHARATPUR   9680428449  373  Active  19-02-2015    .09  421.79 
696 1417 Pavan Kumar 2014-Vakrangee-Bharatpur RANG REG GALI, RUDAWAL  RUPBAS, BHARATPUR undefined  8505083434  2147  Active  20-02-2015    .84  1051.93 
697 1436 Saikool 2014-Vakrangee-Bharatpur Village-Nagla Kulwana Teh.-Kaman Bharatpur    9660560986  100  Active  02-03-2015    .41  18.49 
698 1441 Deshraj Saini 2014-Vakrangee-Bharatpur NEAR RAM MANDIR, KHERLI ROAD  NAGAR, BHARATPUR undefined  7891390330  1179  Active  02-03-2015    .26  4.78 
699 1448 Mahendra Singh 2014-Vakrangee-Bharatpur VPO-HATEEJAR TEH WEIR DIST BHARATPUR    9414654341  1257  Active  11-03-2015    896.48  234.44 
700 1462 Manoj Kumar 2014-Vakrangee-Bharatpur Pingora, Nadbai  Bharatpur   9166679417  563  Active  17-03-2015    132.07  24.05 
701 1517 CSC Sinsini 2014-Vakrangee-Bharatpur Village - Sinsini Block - Deeg,GP -Sinsini Tehsil - Deeg  9024261121  3618  Active  26-03-2015    .03  23.10 
702 1518 CSC Bahaj 2014-Vakrangee-Bharatpur Village - Bahaj block - Deeg,GP-Bahaj Tehsil - Deeg  9783105695  82  Active  26-03-2015    .21  4098.69 
703 1519 CSC Hantra 2014-Vakrangee-Bharatpur Village - Hantra Block - Nadbai, GP -Hantra Tehsil - Nadbai  9887241930  951  Active  26-03-2015    27.67  979.44 
704 1521 CSC Uchchain 2014-Vakrangee-Bharatpur Village - Uchchain Block - Rupbas,GP -Uchchen Tehsil - Rupbas  8058231977  119  Active  26-03-2015    .6  8.80 
705 1522 CSC Chiksana 2014-Vakrangee-Bharatpur Village - Chiksana Block - Sewar,GP -Chiksana Tehsil -Bharatpur  9828294579  1009  Active  26-03-2015    6000.02  1985.01 
706 1523 CSC Nithar 2014-Vakrangee-Bharatpur Village - Nithar Block - Weir,GP -Nithar Tehsil - Weir  9829173114  598  Active  26-03-2015    358.8  188.59 
707 1524 CSC Kamalpura 2014-Vakrangee-Bharatpur Village - Kamalpura Block - Weir,GP -Kamalpura Tehsil - Weir  9785203822  641  Active  26-03-2015    4853.93  286.96 
708 1525 CSC Moloni 2014-Vakrangee-Bharatpur Village - Moloni Block - Weir,GP -Moloni Tehsil - Weir  7568357181  598  Active  26-03-2015    5.29  869.89 
709 1526 CSC Bajhera Kalan 2014-Vakrangee-Bharatpur Village - Bajhera Kalan Block - Weir,GP- Bjera Kalan Tehsil - Bharatpur  9460324222  203  Active  26-03-2015    348.81  119.68 
710 1527 CSC Deewali 2014-Vakrangee-Bharatpur Village - Deewali Block -Weir,GP -Divli Tehsil - Weir  7742053693  54  Active  26-03-2015    .13  162.61 
711 1528 CSC Halena 2014-Vakrangee-Bharatpur Village - Halena Block - Weir,GP -Halena Tehsil - Weir  9928134310  1100  Active  26-03-2015    1.5  82.95 
712 1529 CSC Rupbas 2014-Vakrangee-Bharatpur Village - Rupbas Block - Rupbas,GP -Rupbas Tehsil - Rupbas  05645-273027  679  Active  26-03-2015    .53  1709.30 
713 1530 CSC Chhokarwara Kalan 2014-Vakrangee-Bharatpur Village - Chhokarwara Kalan Block - Weir Bharatpur  9785358031  123  Active  26-03-2015    .1  3689.19 
714 1531 CSC Mai 2014-Vakrangee-Bharatpur Village - Mai  Block - Nadbai Bharatpur  9783015108  566  Active  26-03-2015    .33  570.66 
715 1532 CSC barauli Chhar 2014-Vakrangee-Bharatpur Village-Barauli Chhar Block-Nadbai Bharatpur  9660985921  1042  Active  26-03-2015    .01  1414.37 
716 1534 CSC pahari 2014-Vakrangee-Bharatpur Village-Pahari Block-Nagar Bharatpur  8890198658  1842  Active  26-03-2015    .93  162.25 
717 1536 CSC ludhabai 2014-Vakrangee-Bharatpur Village-Ludhabai Block-Sewar Bharatpur  9166767525  313  Active  26-03-2015    26.99  2168.70 
718 1539 CSC Kanawar 2014-Vakrangee-Bharatpur Village - Kanawar Block - Bayana Bharatpur  9828300711  29  Active  26-03-2015    .37  445.77 
719 1540 CSC Janoothar 2014-Vakrangee-Bharatpur Village-Janoothar Block-Deeg Bharatpur  7597797506  35  Active  26-03-2015    .84  179.83 
720 1542 CSC Bahnera 2014-Vakrangee-Bharatpur Village-Bahnera Block-Sewar Bharatpur  8561985295  1920  Active  26-03-2015    13287.99  0.00 
721 1545 CSC Seedpur 2014-Vakrangee-Bharatpur Village - Seedpur Block - Bayana Bharatpur  9799081802  969  Active  26-03-2015    160.52  329.73 
722 1547 CSC Sikrori 2014-Vakrangee-Bharatpur Village - Sikrori Block - Kumher Bharatpur  9414327298  17  Active  26-03-2015    1681.19  318.71 
723 1550 CSC Gulpara 2014-Vakrangee-Bharatpur Village - Gulpara Block - Nagar,GP -Gulpada Tehsil - Nagar  9649498388  26  Active  26-03-2015    41.26  58.16 
724 1551 Csc Khera Thakur 2014-Vakrangee-Bharatpur Village-Khera Thakur Block-Rupbas District-Bharatpur   8824365595  387  Active  26-03-2015    101.58  122.72 
725 1552 Csc Sarsaina 2014-Vakrangee-Bharatpur Village-Sarsaina Block-Weir District-Bharatpur  9636305014  386  Active  26-03-2015    265.18  691.72 
726 1553 Csc Bhatpura 2014-Vakrangee-Bharatpur Village-Bhatpura Block-Nagar District-Bharatpur  9672172461  8180  Active  26-03-2015    2000.82  1015.36 
727 1555 Csc Seekri Chak No 1 2014-Vakrangee-Bharatpur Village-Seekri Chak No.1 Block-Nagar District-Bharatpur  9950750001  679  Active  26-03-2015    4804.66  545.22 
728 1556 CSC Palka 2014-Vakrangee-Bharatpur Village - Palka Block - Nagar,GP -Palka Tehsil - Nagar  9828229302  408  Active  26-03-2015    1000.36  1851.63 
729 1557 CSC Shyorawali 2014-Vakrangee-Bharatpur Village - Shyorawali Block - Deeg,GP -Shyorawali Tehsil - Deeg  9887037190  22  Active  26-03-2015    18.82  5.19 
730 1558 CSC Bedham 2014-Vakrangee-Bharatpur Village - Dedham Block - Deeg,GP - Baidam Tehsil - Deeg  9887050988  1794  Active  26-03-2015    8758.19  745.97 
731 1561 CSC Ubar 2014-Vakrangee-Bharatpur Village- Ubar Block- Kumher District- Bharatpur  9782276183   2466  Active  26-03-2015    1508.53  1793.48 
732 1563 CSC Seekri Chak No 2 2014-Vakrangee-Bharatpur Village- Seekri Chak No 2 Block- Nagar District- Bharatpur  9413994113  5462  Active  26-03-2015    .03  941.69 
733 1564 CSC Berroo 2014-Vakrangee-Bharatpur Village- Berroo Block- Nagar District- Bharatpur  9983740637  81  Active  26-03-2015    223.71  229.56 
734 1565 CSC Shahna 2014-Vakrangee-Bharatpur Village - Shahna Block - Rupbas,GP -Sahna Tehsil - Rupbas  8058592215  11  Active  26-03-2015    2.87  186.52 
735 1571 CSC Dehgawan 2014-Vakrangee-Bharatpur Village- Dehgawan  Block- Bayana  District- Bharatpur  9887919379  654  Active  26-03-2015    .16  5054.26 
736 1572 CSC Paramdara 2014-Vakrangee-Bharatpur Village- Paramadara Block- Deeg District- Bharatpur  9413227228  98  Active  26-03-2015    41.49  83.40 
737 1575 CSC Baroli Chauth 2014-Vakrangee-Bharatpur Village- Baroli Chauth  Block- Deeg  District- Bharatpur  9950866507  3801  Active  26-03-2015    .58  454.35 
738 1577 CSC Satwas 2014-Vakrangee-Bharatpur Village- Satwas  Block- Kaman  District- Bharatpur   9982321410  Active  26-03-2015    .46  17.69 
739 1578 CSC Moonsepur 2014-Vakrangee-Bharatpur Village- Moonsepur  Block- Kaman  District- Bharatpur   9001892350  87  Active  26-03-2015    3.4  0.64 
740 1579 CSC Jurhara 2014-Vakrangee-Bharatpur Village- Jurhara  Block- Kaman  District- Bharatpur  9413878652  148  Active  26-03-2015    .69  542.37 
741 1580 CSC Sablana 2014-Vakrangee-Bharatpur Village- Sablana  Block- Kaman  District- Bharatpur  9413193034  232  Active  26-03-2015    13.35  9.57 
742 1581 CSC Kathaul 2014-Vakrangee-Bharatpur Village- Kathaul  Block- Kaman  District- Bharatpur   9509535906  92  Active  26-03-2015    706.46  0.00 
743 1583 CSC Belara Kalan 2014-Vakrangee-Bharatpur Village- Belara Kalan  Block- Kumher  District- Bharatpur  8058521191  4955  Active  26-03-2015    3944.95  0.00 
744 1584 CSC Lakhan 2014-Vakrangee-Bharatpur Village- Lakhan  Block- Kumher  District- Bharatpur  9602406517  495  Active  26-03-2015    .25  663.54 
745 1585 CSC Borai 2014-Vakrangee-Bharatpur Village- Borai  Block- Kumher  District- Bharatpur   9694199137  15  Active  26-03-2015    113.6  146.01 
746 1586 CSC Kurka 2014-Vakrangee-Bharatpur Village- Kurka  Block- Rupbas  District- Bharatpur  9783284432  Active  26-03-2015    2788.69  19.60 
747 1587 CSC Malah 2014-Vakrangee-Bharatpur Village- Malah  Block- Sewar  District- Bharatpur   9001668134  5527  Active  26-03-2015    1872.78  1080.87 
748 1591 CSC KORER 2014-Vakrangee-Bharatpur Village KORER  Block DEEG  District BHARATPUR   9783156574  4272  Active  26-03-2015    351.88  554.78 
749 1593 CSC Ajau 2014-Vakrangee-Bharatpur Village Ajau  Block KUMHER   District BHARATPUR   9286557605  Active  26-03-2015    13.17  0.00 
750 1594 CSC Barauli Ran 2014-Vakrangee-Bharatpur Village Barauli Ran  Block NADBAI  District BHARATPUR   9252730750  Active  26-03-2015    394.07  0.00 
751 1596 CSC Shakkarpur 2014-Vakrangee-Bharatpur Village Shakkarpur  Block RUPBAS  District BHARATPUR   9462355422  50  Active  26-03-2015    7.32  688.69 
752 1600 CSC Siras 2014-Vakrangee-Bharatpur Village Siras   Block WEIR  District BHARATPUR   9460877014  107  Active  26-03-2015    .27  3660.60 
753 1601 CSC Bhaiseena 2014-Vakrangee-Bharatpur Village Bhaiseena  Block WEIR  District BHARATPUR   9214944095  195  Active  26-03-2015    .59  530.87 
754 1602 CSC Samraya 2014-Vakrangee-Bharatpur Village Samraya  Block WEIR  District BHARATPUR   9667808828  45  Active  26-03-2015    311.15 
755 1604 CSC HATAURI 2014-Vakrangee-Bharatpur Village HATAURI   Block WEIR   District BHARATPUR   000000000000  55  Active  26-03-2015    800.48  775.74 
756 1606 CSC Barah Mafi 2014-Vakrangee-Bharatpur Village - Barah Mafi Block - Rupbas GP - Barah Mafi  9680805312  Active  26-03-2015    58.86  14.35 
757 1609 CSC Sahsan 2014-Vakrangee-Bharatpur Village Sahsan  Block KAMAN  District BHARATPUR   96101000045  890  Active  26-03-2015    16.73  23.66 
758 1610 CSC Pichoomar 2014-Vakrangee-Bharatpur Village Pichoomar  Block KUMHER  District BHARATPUR   7737100184  14  Active  26-03-2015    164.14  133.65 
759 1611 CSC Peepal Khera 2014-Vakrangee-Bharatpur Village Peepal Khera  Block NAGAR  District BHARATPUR   9772404014  10  Active  26-03-2015    239.12  53.90 
760 1614 CSC Aghapur 2014-Vakrangee-Bharatpur Village Aghapur  Block SEWAR  District BHARATPUR   9549249946  325  Active  26-03-2015    12.31  990.03 
761 1615 CSC Moondota 2014-Vakrangee-Bharatpur Village MOONDOTA   Block SEWAR   District BHARATPUR   9887482598  82  Active  26-03-2015    411.23  879.87 
762 1616 CSC Jahanpur 2014-Vakrangee-Bharatpur Village- Jahanpur Block- Weir  District- Bharatpur   9694265999  15  Active  26-03-2015    .06  231.42 
763 1618 CSC Samai 2014-Vakrangee-Bharatpur Village Samai  Block DEEG  District BHARATPUR   9509535226  3863  Active  26-03-2015    5924.42  172.17 
764 1620 CSC Pai 2014-Vakrangee-Bharatpur Village Pai  Block KAMAN  District BHARATPUR   9413309008  1898  Active  26-03-2015    284.56  13.76 
765 1622 CSC Gopalgarh 2014-Vakrangee-Bharatpur Village Gopalgarh  Block NAGAR  District BHARATPUR   9983757532  149  Active  26-03-2015    69.38  9.57 
766 1624 CSC Dahina Gaon 2014-Vakrangee-Bharatpur Village Dahina Gaon  Block RUPBAS  District BHARATPUR   9983650149  1533  Active  26-03-2015    .21  865.65 
767 1626 CSC Sanwler 2014-Vakrangee-Bharatpur Village- Sanwler Block- Kaman  District- Bharatpur  9982052204  273  Active  26-03-2015    13.79  0.00 
768 1627 CSC Bilang 2014-Vakrangee-Bharatpur Village- Bilang Block- Kaman  District- Bharatpur  8504075123  Active  26-03-2015    13.11  0.23 
769 1628 CSC Koomha (Khumer) 2014-Vakrangee-Bharatpur Village- Koomha  Block- Kumher  District- Bharatpur  9887438336  2004  Active  26-03-2015    .58  312.08 
770 1629 CSC Bachhamadi 2014-Vakrangee-Bharatpur Village- Bachhamadi Block- Nadbai District- Bharatpur  9680669629  41  Active  26-03-2015    10.45  347.90 
771 1631 CSC Taraudar 2014-Vakrangee-Bharatpur Village- Taraudar  Block- Nagar District- Bharatpur  9783527827  163  Active  26-03-2015    87.25  242.04 
772 1632 CSC Tuhiya 2014-Vakrangee-Bharatpur Village- Tuhiya  Block- Sewar  District- Bharatpur  9887934359  381  Active  26-03-2015    251.52  1101.97 
773 1633 CSC Naroli 2014-Vakrangee-Bharatpur Village- Naroli Block- Bayana  District- Bharatpur  9799726525  211  Active  26-03-2015    5706.1  215.51 
774 1635 CSC Khanuan 2014-Vakrangee-Bharatpur Village - khanuan Block - Rupbas  Bharatpur  8003617737  206  Active  26-03-2015    .49  346.42 
775 1636 CSC Atari 2014-Vakrangee-Bharatpur Village- Atari Block- Nadbai District- Bharatpur  9414377002  1142  Active  26-03-2015    .82  41.59 
776 1638 CSC Karhi 2014-Vakrangee-Bharatpur Village- Karhi Block- Nadbai District- Bharatpur  9950324526  230  Active  26-03-2015    66.9  768.44 
777 1644 CSC Chhichharwari 2014-Vakrangee-Bharatpur Village- Chhichharwari Block- Kaman  District- Bharatpur  9828523499  65  Active  26-03-2015    32.14  161.70 
778 1647 CSC Nyotha 2014-Vakrangee-Bharatpur Village- Nyotha  Block- Nadbai District- Bharatpur  05643275505  249  Active  26-03-2015    41.61  69.83 
779 1649 CSC Kheri Devisingh 2014-Vakrangee-Bharatpur Village- Kheri Devisingh  Block- Nadbai  District- Bharatpur  9887395295  249  Active  26-03-2015    216.15  793.39 
780 1650 CSC Piprau 2014-Vakrangee-Bharatpur Village- Piprau Block- Nadbai District- Bharatpur  8442076861  12  Active  26-03-2015    7.43  23.81 
781 1654 CSC Undra 2014-Vakrangee-Bharatpur Village- Undra  Block- Sewar  District- Bharatpur  7742257001  301  Active  26-03-2015    800.54  889.56 
782 1656 CSC Lakhanpur (Weir) 2014-Vakrangee-Bharatpur Village- Lakhanpur Block- Weir  District- Bharatpur  9782635066  982  Active  26-03-2015    5.99  53.20 
783 1657 CSC Moodiya Laleeta 2014-Vakrangee-Bharatpur Village- Moodiya Laleeta Block- Weir  District- Bharatpur  9414758409  Active  26-03-2015    .5  43.04 
784 1660 CSC Jatmasi 2014-Vakrangee-Bharatpur Village JATMASI  Block RUPBAS  District BHARATPUR   8058932026  216  Active  26-03-2015    .12  353.91 
785 1661 CSC Ajan 2014-Vakrangee-Bharatpur Village Ajan  Block KUMHER  District BHARATPUR   9887687712  3976  Active  26-03-2015    .2  1425.22 
786 1663 CSC Bhatawali 2014-Vakrangee-Bharatpur Village BHATAWALI  Block KUMHER  District BHARATPUR   9530446606  258  Active  26-03-2015    202.66  19.13 
787 1666 CSC Barauli Dhau 2014-Vakrangee-Bharatpur Village- Barauli Dhau Block- Kaman District- Bharatpur  9636033448  605  Active  26-03-2015    2047.02  220.50 
788 1668 CSC Jagarka 2014-Vakrangee-Bharatpur Village- Jagarka Block- Nagar  District- Bharatpur    Active  26-03-2015    126.75  0.00 
789 1670 CSC Badri 2014-Vakrangee-Bharatpur Village BADRI  Block DEEG  District BHARATPUR   9875298827  575  Active  26-03-2015    .92  828.45 
790 1672 CSC Bilond 2014-Vakrangee-Bharatpur Village BILOND  Block KAMAN  District BHARATPUR   9875114960  19  Active  26-03-2015    30.38  0.00 
791 1676 CSC Noharda 2014-Vakrangee-Bharatpur Village NOHARDA  Block RUPBAS  District BHARATPUR   9413510642  1358  Active  26-03-2015    38.78  267.83 
792 1677 CSC PHULWARA 2014-Vakrangee-Bharatpur Village PHULWARA  Block SEWAR  District BHARATPUR   05644220663  1548  Active  26-03-2015    .17  832.18 
793 1679 CSC BRAHMAWAD 2014-Vakrangee-Bharatpur Village BRAHMAWAD  Block BAYANA  District BHARATPUR   05648232035  250  Active  26-03-2015    423.84  1829.46 
794 1681 CSC Sooti 2014-Vakrangee-Bharatpur Village SOOTI  Block SEWAR  District BHARATPUR   8094749430  37  Active  26-03-2015    16.61  0.00 
795 1682 CSC Jagheena (Rural) 2014-Vakrangee-Bharatpur Village- Jagheena (Rural) Block- Sewar  District- Bharatpur  9782633090  15  Active  26-03-2015    6900.61  295.06 
796 1683 CSC Naunera 2014-Vakrangee-Bharatpur Village Naunera  Block KAMAN  District BHARATPUR   9782528569  88  Active  26-03-2015    2234.48  0.00 
797 1684 CSC Udaka 2014-Vakrangee-Bharatpur Village Udaka  Block KAMAN  District BHARATPUR   9887770292  984  Active  26-03-2015    21.22  374.48 
798 1685 CSC Helak 2014-Vakrangee-Bharatpur Village Helak  Block KUMHER  District BHARATPUR   9414889065  525  Active  26-03-2015    9.21  24.01 
799 1686 CSC RANDHEERGARH 2014-Vakrangee-Bharatpur Village RANDHEERGARH  Block WEIR  District BHARATPUR   9828356625  137  Active  26-03-2015    44.43  122.43 
800 1688 CSC Khan Surjapura 2014-Vakrangee-Bharatpur village khan surjapura block rupbas District bharatpur  9929935890  653  Active  26-03-2015    87.9  547.42 
801 1689 CSC Ghatri 2014-Vakrangee-Bharatpur Village Ghatri Block Weir District Bharatpur  000000000000  766  Active  26-03-2015    500.56  2697.85 
802 1690 CSC Vaulkhera 2014-Vakrangee-Bharatpur Village Vaulkhera  Block KAMAN  District BHARATPUR   9928280228  13  Active  26-03-2015    1199.08  0.00 
803 1693 CSC Sundrawali 2014-Vakrangee-Bharatpur Village- Sundrawali Block- Nagar  District- Bharatpur  9261767670  1003  Active  26-03-2015    342.63  25.62 
804 1696 CSC Pahua 2014-Vakrangee-Bharatpur Village- Pahua  Block- Kumher  District- Bharatpur  9784058944  267  Active  26-03-2015    721.18  479.79 
805 1697 CSC Kakrala 2014-Vakrangee-Bharatpur Village- Kakrala Block- Nagar District- Bharatpur  9828672146  246  Active  26-03-2015    22.57  3477.66 
806 1698 CSC Dawak 2014-Vakrangee-Bharatpur Village- Dawak Block- Nagar District- Bharatpur  9610562668  2974  Active  26-03-2015    1031.17  325.68 
807 1700 CSC Andhiyari 2014-Vakrangee-Bharatpur Village- Andhiyari Block- Rupbas District- Bharatpur  9950324410  654  Active  26-03-2015    .02  1860.73 
808 1701 CSC Bhawanpura 2014-Vakrangee-Bharatpur Village- Bhawanpura Block- Rupbas District- Bharatpur  9828223330  Active  26-03-2015    418.14  0.00 
809 1703 CSC Madhoni 2014-Vakrangee-Bharatpur Village- Madhoni Block- Sewar District- Bharatpur  9414895963  10  Active  26-03-2015    78.94  0.00 
810 1705 CSC Santrook 2014-Vakrangee-Bharatpur Village- Santrook Block- Kumher District- Bharatpur  9982774208  1706  Active  26-03-2015    40.52  318.02 
811 1706 CSC Therawar 2014-Vakrangee-Bharatpur Village- Therawar Block- Kumher District- Bharatpur  9772922025  1082  Active  26-03-2015    .46  261.18 
812 1707 CSC Ranph 2014-Vakrangee-Bharatpur Village- Ranph Block- Nagar District- Bharatpur  7891634369  145  Active  26-03-2015    1383.68  502.65 
813 1709 CSC Matooki 2014-Vakrangee-Bharatpur Village- Matooki Block- Nagar District- Bharatpur  8058603373  1947  Active  26-03-2015    2128.7  143.63 
814 1710 CSC Nabhera 2014-Vakrangee-Bharatpur Village- Nabhera Block- Rupbas District- Bharatpur  9694147825  66  Active  26-03-2015    6.57  586.79 
815 1711 CSC Padalwas 2014-Vakrangee-Bharatpur Village- Padalwas Block- Nagar District- Bharatpur  9982320886  730  Active  26-03-2015    93.22  110.96 
816 1721 CSC Bodoli 2014-Vakrangee-Bharatpur Village- Bodoli Block- Nagar  District- Bharatpur  9587774983  165  Active  26-03-2015    8.37  272.61 
817 1723 CSC Kasot_WRS 2014-Vakrangee-Bharatpur Village- Kasot Block- Deeg District- Bharatpur  9950306770  3977  Active  26-03-2015    .33  1758.69 
818 1726 CSC Khangri_WRS 2014-Vakrangee-Bharatpur Village- Khangri Block- Nadbai District- Bharatpur  9784436739  106  Active  26-03-2015    329.69  24.50 
819 1729 CSC Daulatgarh 2014-Vakrangee-Bharatpur Village- Daulatgarh Block- Rupbas District- Bharatpur  8058253021  387  Active  26-03-2015    1103.2  1259.32 
820 1731 CSC Uchchain 2014-Vakrangee-Bharatpur Village - Uchchain Block - Rupbas Dist. - Bharatpur  9928892871  1366  Active  26-03-2015    .17  1419.86 
821 1733 CSC Rundh Rupbas 2014-Vakrangee-Bharatpur Village - Rundh Rupbas Block - Rupbas Dist. - Bharatpur  0000000  876  Active  26-03-2015    .18  1184.89 
822 1734 CSC Rupbas_WRS 2014-Vakrangee-Bharatpur Village - Rupbas Block - Rupbas Dist. - Bharatpur  9828863302  1957  Active  26-03-2015    4.05  292.07 
823 1735 CSC Rudawal 2014-Vakrangee-Bharatpur Vilage - Rudawal Block - Rupbas Dist. - Bharatpur  9610023242  544  Active  26-03-2015    4000.67  229.57 
824 1737 CSC NAWLI 2014-Vakrangee-Bharatpur Village-NAWLI BLOCK -BAYANA DIS- BHARATPUR  9001558722  738  Active  26-03-2015    156.45  554.26 
825 1738 CSC KUCHAWATI 2014-Vakrangee-Bharatpur Village-KUCHAWATI BLOCK -DEEG DIS- BHARATPUR  9875144247  2774  Active  26-03-2015    35.2  17.64 
826 1740 CSC BAMANWARI 2014-Vakrangee-Bharatpur Village-BAMANWARI BLOCK -KAMAN DIS- BHARATPUR  9785707577  682  Active  26-03-2015    .03  1031.61 
827 1741 CSC GHATMEEKA 2014-Vakrangee-Bharatpur Village-GHATMEEKA BLOCK -KAMAN DIS- BHARATPUR  8094797171  9616  Active  26-03-2015    1150.57  2771.21 
828 1742 CSC PIPRAU 2014-Vakrangee-Bharatpur Village-PIPRAU BLOCK -NADBAI DIS- BHARATPUR  9166662311  733  Active  26-03-2015    52.27  241.24 
829 1743 CSC LAKHANPUR 2014-Vakrangee-Bharatpur Village-LAKHANPUR BLOCK -NADBAI DIS- BHARATPUR  9414214046  1216  Active  26-03-2015    104.9  1771.70 
830 1745 CSC IBRAHIMPUR 2014-Vakrangee-Bharatpur Village-IBRAHIMPUR BLOCK -RUPBAS DIS- BHARATPUR  9772543150  15  Active  26-03-2015    1.49  152.78 
831 1746 CSC BANSI KUURD 2014-Vakrangee-Bharatpur Village-BANSI KUURD BLOCK -SEWAR DIS- BHARATPUR  9875008565  159  Active  26-03-2015    4.55  1114.35 
832 1747 CSC PATHENA 2014-Vakrangee-Bharatpur Village-PATHENA BLOCK -WEIR DIS- BHARATPUR  9461247513  868  Active  26-03-2015    .62  224.78 
833 1749 JSS Infotech emitra center 2014-Vakrangee-Bharatpur Near SRS College  Block Kumher  Bharatpur  9950192400  597  Active  26-03-2015    418.14  53.49 
834 1750 Kuldeep Emitra Center 2014-Vakrangee-Bharatpur Infront of Zila Parishad Shop No. 1 Krishana Nagar Bharatpur  9887149141  13543  Active  26-03-2015    958.81  2575.91 
835 1751 Tamanna Emitra Center 2014-Vakrangee-Bharatpur Shop No. 15 Collectrate Campus Near S.B.B.J Collectrate Branch Bharatpur  000000000  8359  Active  26-03-2015    .38  9797.83 
836 1752 Anuj eMitra 2014-Vakrangee-Bharatpur 82, Ekta Vihar Colony Sunkh Road Bharatpur  000000000  1881  Active  26-03-2015    58.99  224.78 
837 1754 City eMitra Center 2014-Vakrangee-Bharatpur Near Siki Wale Hanuman Mandir Mandi Alal Bandh  Bharatpur  05644220341  1842  Active  26-03-2015    7.17  3967.65 
838 1755 Rakesh eMitra Center 2014-Vakrangee-Bharatpur Shop No-1 Near Panchayat Samiti Blcok-Nadbai Bharatpur  05643275050  16857  Active  26-03-2015    .39  18950.59 
839 1756 Anil Emitra 2014-Vakrangee-Bharatpur Jain Book Depot Block Bayana District- Bharatpur   05648225200  618  Active  26-03-2015    .72  1377.39 
840 1757 Gaurav eMitra 2014-Vakrangee-Bharatpur Koli Pada Caabkari Mohalla NAi Sadak Deeg Bharatpur  9414715893  1474  Active  26-03-2015    .07  617.67 
841 1758 Sony eMitra Center 2014-Vakrangee-Bharatpur Near Jageshwar Mandir Kumher Bharatpur   9024728351  272  Active  26-03-2015    200.21  1856.13 
842 1759 Balaji emitra Center Nadbai 2014-Vakrangee-Bharatpur Balaji Printing Press  Nagar Road Nadbai  9785578785  1852  Active  26-03-2015    .2  1190.87 
843 1760 Shri Radhey Mohan eMitra Center 2014-Vakrangee-Bharatpur Natani Mohalla Deeg Bharatpur  9887905192  735  Active  26-03-2015    510.85  1681.92 
844 1761 Dakshita eMitra Center 2014-Vakrangee-Bharatpur Infront of Mohanji Mandir Budh ki Haat Bharatpur  9413916336  1560  Active  26-03-2015    1.43  377.83 
845 1838 Mevaram 2014-Vakrangee-Bharatpur atal Seva kendra kapura, malooka    8290695834  20  Active  13-04-2015    343.23  417.68 
846 1842 Laxmi Narayan Gaur 2014-Vakrangee-Bharatpur Atal Seva Kendra Ghosinga Kaman Bharatpur    9982906461  253  Active  13-04-2015    5153.54  0.00 
847 1843 Narendra Kumar 2014-Vakrangee-Bharatpur Atal Seva Kendra Vpo Uadki Dalla Nagar Bharatpur    8502921843  5523  Active  13-04-2015    414.87  81.42 
848 1844 Sanjay Kumar 2014-Vakrangee-Bharatpur Atal Seva Kendra Dayana Ka Bass Khohri Nagar Bharatpur     9772925002  Active  13-04-2015    20086.32  0.00 
849 1880 Chandra Shekhar 2014-Vakrangee-Bharatpur Vill- madapura,rupbas bharatpur   9694325981  Active  16-04-2015    8041.22  156.80 
850 1881 Anil Kumar 2014-Vakrangee-Bharatpur Vill- Fatehpur,Rupbas bharatpur   9460291176  262  Active  16-04-2015    1864.62  220.31 
851 1882 Ravindra Singh 2014-Vakrangee-Bharatpur Vill- Vinaua,Rupbas Bharatpur   9602931193  Active  16-04-2015    21.27  0.00 
852 1884 Santosh Kumar 2014-Vakrangee-Bharatpur VPO-Akhaigarh the-nadbai dist-bharatpur    9887472471  27  Active  16-04-2015    53.04  108.32 
853 1885 Ram Sahay 2014-Vakrangee-Bharatpur VPO-Nayabas the-nadbai dist-bharatpur    9785190846  1178  Active  16-04-2015    83.24  298.67 
854 1890 Rajneesh 2014-Vakrangee-Bharatpur Vill-Ajit nagar post-Dharsoni the-weir dist-bharatpur    9828571484  6415  Active  16-04-2015    130.44  1335.24 
855 1892 Vishnu Kumar 2014-Vakrangee-Bharatpur Vill- chulera, Tehsil - Deeg    9887691796  Active  16-04-2015    3.91  0.00 
856 1896 Ghanshyam Singh 2014-Vakrangee-Bharatpur Near Petrol Pump    9982183871  174  Active  16-04-2015    220.18  176.91 
857 1897 Jitendra Kumar 2014-Vakrangee-Bharatpur Dumriya,Roopbas Bharatpur   9928208514  Active  16-04-2015    10.88  1.68 
858 1898 Khajan Singh 2014-Vakrangee-Bharatpur Ghata,Aodal Gaddi Rupbas,Bharatpur undefined  8432303126  3266  Active  16-04-2015    6.31  1156.05 
859 1900 Suresh Chand 2014-Vakrangee-Bharatpur VPO Malah Sawer Bharatpur    1376  Active  16-04-2015    210.81  958.82 
860 1901 Devendra Singh 2014-Vakrangee-Bharatpur VPO-KHATAUTI TEH-NADBAI DIST-BHARATPUR    9785156162  10  Active  16-04-2015    2268.43  184.30 
861 1902 Vishnu Kumar 2014-Vakrangee-Bharatpur VPO Chulera Deeg Bharatpur    9549869225  727  Active  16-04-2015    3609.43  406.64 
862 1903 Devendra Singh 2014-Vakrangee-Bharatpur VPO Pasta Deeg Bharatpur    8058521363  446  Active  16-04-2015    154.57  24.11 
863 1904 Kumar Singh 2014-Vakrangee-Bharatpur VPO Khohri Deeg Bharatpur    9587994507  167  Active  16-04-2015    3546.95  24.03 
864 1905 Virendra Pal Singh 2014-Vakrangee-Bharatpur VPO Khohri Deeg Bharatpur    7597756933  Active  16-04-2015    325.1  11.83 
865 1906 Pradeep Kumar 2014-Vakrangee-Bharatpur Dhaulet Kaman Bharatpur    9610020647  1794  Active  16-04-2015    53.19  287.36 
866 1907 Rameej Khan 2014-Vakrangee-Bharatpur Kherli Manna Pahari Nagar    9610020647  729  Active  16-04-2015    8940.63  0.00 
867 1910 Sunil Kumar 2014-Vakrangee-Bharatpur G.P. KHANUA, ROOPBAS BHARATPUR   8441083556  115  Active  16-04-2015    58.6  14.35 
868 1911 Jandail Singh 2014-Vakrangee-Bharatpur G.P. DHANA KHERLI, ROOPBAS  BHARATPUR   9784489724  2777  Active  16-04-2015    71.59  455.49 
869 1912 Gopal Singh 2014-Vakrangee-Bharatpur VILL-JAHANPUR POST-MOLONI TEH-WEIR DIST-BHARATPUR    9667902928  82  Active  16-04-2015    6.59  267.83 
870 1913 Harish Chand 2014-Vakrangee-Bharatpur VPO-KARILI TEH-NADBAI DIST-BHARATPUR RAJ    9828354550  65  Active  16-04-2015    7.56  1437.69 
871 1914 Sonu Singh 2014-Vakrangee-Bharatpur VPO-RAYSIS TEH-NADBAI DIST-BHARATPUR RAJ     7891285253  Active  16-04-2015    .55  227.57 
872 1915 Sunil Kumar 2014-Vakrangee-Bharatpur VPO-GANGAROLI TEH-NADBAI DIST-BHARATPUR     9929273597  33  Active  16-04-2015    51.83  58.35 
873 1916 Jeetendra Singh 2014-Vakrangee-Bharatpur VPO-ENCHERA TEH-NADBAI DIST-BHARATPUR RAJ.    9636948833  735  Active  16-04-2015    4864.19  100.55 
874 1917 Lalaram Saini 2014-Vakrangee-Bharatpur VPO-AKHAIGARH TEH-NADBAI DIST-BHARATPUR RAJ.321614    8107612481  112  Active  16-04-2015    .5  396.27 
875 1918 Rambabu 2014-Vakrangee-Bharatpur G.P. SENDHLI, BHUSAWAR  BHARATPUR   9782635464  156  Active  16-04-2015    167.24  153.40 
876 1919 Ajaharuddeen 2014-Vakrangee-Bharatpur Atal Seva Kendra Teski Nagar Bharatpur    9587911862  1822  Active  16-04-2015    2152.63  275.93 
877 1922 Kanhiya Lal 2014-Vakrangee-Bharatpur Atal Sewa Kendra Satwari,Pahari Nagar ,Bharatpur undefined  9694217678  74  Active  16-04-2015    7446.14  201.53 
878 1941 Mahipal Singh 2014-Vakrangee-Bharatpur VPO Shyourawali Deeg Bharatpur    9828659838  782  Active  17-04-2015    3.34  424.28 
879 1943 Saleem 2014-Vakrangee-Bharatpur Village- Ghari Jhil Patti , Kaman    9783322056  241  Active  17-04-2015    45.44  27.18 
880 1960 Kuldeep Singh 2014-Vakrangee-Bharatpur VPO-ALIPUR TEH-WEIR DIST-BHARATPUR RAJ.    9252535610  60  Active  20-04-2015    3802.08  161.70 
881 1961 Subhash Chand 2014-Vakrangee-Bharatpur VPO-NAROLI TEH-WEIR DIST-BHARATPUR RAJ    7891273172  Active  20-04-2015    4932.75  3.92 
882 1970 Sahil 2014-Vakrangee-Bharatpur VILL.-LEVDATEH.-KAMANDIST.-BHARATPUR    8302391952  230  Active  24-04-2015    2316.63  711.85 
883 1971 Manuj 2014-Vakrangee-Bharatpur Atal Sewa Kendra Sahsan,Kaman Bharatpur   9982484243  416  Active  24-04-2015    .59  1014.53 
884 1974 Sukhveer Singh 2014-Vakrangee-Bharatpur BHANDRA, KAMAN  BHARATPUR   9680687275  60  Active  24-04-2015    74.35  1.31 
885 1982 Rajeev 2014-Vakrangee-Bharatpur Bodoli Dahar Nagar Bharatpur    9772131500  915  Active  27-04-2015    4955.06  1009.13 
886 1985 Amajad Khan 2014-Vakrangee-Bharatpur Udki Dalla Nagar Bharatpur    9783421642  777  Active  27-04-2015    271.45  258.26 
887 1987 Preeti Rani 2014-Vakrangee-Bharatpur G.P. SATWAS, KAMAN  BHARATPUR   9571941818  20  Active  27-04-2015    106.84  57.39 
888 1988 Jeetendra Singh 2014-Vakrangee-Bharatpur Atal Sewa Kendra, Kharera, GP- Kharera, Roopwas     9667424562  1706  Active  27-04-2015    4115.43  49.10 
889 1989 Satyendra Kumar 2014-Vakrangee-Bharatpur G.P. KHAKHAWALI, NAGAR  BHARATPUR   9785549716  Active  27-04-2015    313.37  0.00 
890 1991 Jagveer Singh 2014-Vakrangee-Bharatpur Palka,Nagar  Bharatpur   9610077616  2488  Active  27-04-2015    290.59  286.96 
891 1992 Robin 2014-Vakrangee-Bharatpur Vill-Ladamka,Pahari Nagar,Bharatpur undefined  8769665665  60  Active  27-04-2015    8.75  0.08 
892 1993 Gopi Kamwar 2014-Vakrangee-Bharatpur Vill. DHANWADA GP.-DHANWADATEH. KUMHERDIST. BHARATPUR    7665903596  187  Active  27-04-2015    1500.16  323.97 
893 1994 Tirthendra Kumar 2014-Vakrangee-Bharatpur NEAR OF BIHARI JI TEMPLE, MAHAL KHAS ROAD  KILA, BHARATPUR undefined  9414208420  473  Active  27-04-2015    4.71  772.07 
894 1995 Ravi Kant 2014-Vakrangee-Bharatpur Vill Jhitaredi Nagar Bharatpur    8239735599  33  Active  27-04-2015    20.79  158.65 
895 1996 Shailendra Kumar 2014-Vakrangee-Bharatpur Near Panchayat Samati Rupbas    05645273071  1155  Active  27-04-2015    14.26  3060.13 
896 1997 Jiwaram 2014-Vakrangee-Bharatpur Near Peer Mohalla Kaman    7568394564  2671  Active  27-04-2015    .61  1367.98 
897 2000 Farram Khan 2014-Vakrangee-Bharatpur OLANDA, KAMAN  BHARATPUR   9929170950  18  Active  27-04-2015    310.53  584.89 
898 2001 Ansar Ahmad 2014-Vakrangee-Bharatpur UDAKA, KAMAN  BHARATPUR   9667924143  40  Active  27-04-2015    17.69  0.00 
899 2002 Ajam Ali 2014-Vakrangee-Bharatpur MOONSEPUR,KAMAN Bharatpur   9887355386  108  Active  27-04-2015    .86  407.14 
900 2004 Govind Singh 2014-Vakrangee-Bharatpur KANWARA, KAMAN  BHARATPUR   9875177264  31  Active  27-04-2015    43.25  901.26 
901 2005 Aneesh 2014-Vakrangee-Bharatpur BHORI, PAHARI  BHARATPUR   9887936012  Active  27-04-2015    3159.29  0.67 
902 2006 Janish Khan 2014-Vakrangee-Bharatpur GARHAJAN, KAMAN  BHARATPUR   9413157862  15  Active  27-04-2015    .07  59.07 
903 2009 Ramavatar Gurjar 2014-Vakrangee-Bharatpur PALLA, KAMAN  BHARATPUR   9875161441  569  Active  27-04-2015    5991.87  0.00 
904 2010 Tarif Mohhamad 2014-Vakrangee-Bharatpur Ladlaka,Pahari Bharatpur   8875058404  100  Active  27-04-2015    50.66  176.41 
905 2011 Anuj Kumar 2014-Vakrangee-Bharatpur ग्राम पंचायत अऊ तहसील डीग  जिला भरतपुर राजस्थान  9828638957  1266  Active  27-04-2015    2130.2  205.43 
906 2012 Sukhwant Singh 2014-Vakrangee-Bharatpur MURWARA ROAD, SUNDER VATIKA  ANAND NAGAR, BHARATPUR undefined  8058769755  Active  27-04-2015    0.00 
907 2060 Ashok Kumar 2014-Vakrangee-Bharatpur Dayana Ka Bass Khohri Nagar Bharatpur    9783351699  2084  Active  04-05-2015    9923.39  391.48 
908 2062 Gopal Ram Koli 2014-Vakrangee-Bharatpur Near Bus Stand Bhusaware    9887091922  Active  04-05-2015    52.15  0.00 
909 2063 Asu Khan 2014-Vakrangee-Bharatpur Atal Sewa Kendra,Jurhera Kaman,Bharatpur undefined  9828287548  683  Active  05-05-2015    32.93  272.61 
910 2064 Pradeep Kumar 2014-Vakrangee-Bharatpur Near Bus Stand,Heera Das Bharatpur   9782824899  4275  Active  05-05-2015    49.14  541.10 
911 2065 Jeetendra Kumar 2014-Vakrangee-Bharatpur Alamshah,Nagar Bharatpur   8824310939  730  Active  05-05-2015    1945.15  214.26 
912 2066 Ghanshyam Sharma 2014-Vakrangee-Bharatpur Jurhera,Kaman Bharatpur   9887458200  1753  Active  05-05-2015    292.48  1491.65 
913 2067 Jeetendra Singh 2014-Vakrangee-Bharatpur Shahna,Roopwas Bharatpur   7891440920  342  Active  05-05-2015    .95  3712.74 
914 2069 Dharmendra Singh 2014-Vakrangee-Bharatpur Bachhrain,Weir Bharatpur   9636979736  1592  Active  05-05-2015    3933.73  0.00 
915 2074 Suresh Chand 2014-Vakrangee-Bharatpur Near PNB Bank Deeg Bharatpur    9414695077  60  Active  05-05-2015    91.27  215.22 
916 2076 Deepak Kumar 2014-Vakrangee-Bharatpur INFRONT BIJALI GHAR OFFICE, MAAN SINGH CIRCLE  BHARATPUR   9610085507  Active  05-05-2015    1.91  82.08 
917 2080 Sakir Hussain 2014-Vakrangee-Bharatpur VILL.-MOONGASKATEH/BLOCK .-KAMANDIST.-BHARATPUR    9610030300  Active  05-05-2015    .2  30.43 
918 2085 Satish Chand 2014-Vakrangee-Bharatpur NAGAR PALIKA BAYANA,BAYANA BHARATPUR   9460456748  212  Active  05-05-2015    1.15  73.73 
919 2107 Chandra Prakash 2014-Vakrangee-Bharatpur Near Vatnary Hospital Infront Of Collectrate Bharatpur    9875008565  Active  13-05-2015    14.08  4486.08 
920 2108 Virendra 2014-Vakrangee-Bharatpur Sirthala,Nagar Bharatpur   8003120878  474  Active  13-05-2015    .05  563.91 
921 2109 Shakrulla Khan 2014-Vakrangee-Bharatpur Jalalpur,Nagar Bharatpur   8890841456  11366  Active  13-05-2015    6.81  237.88 
922 2110 Abhishek Jain 2014-Vakrangee-Bharatpur Ward No 10,Weir Bharatpur   05643272027  319  Active  13-05-2015    1033.44  0.00 
923 2112 Dilip Kumar Mathur 2014-Vakrangee-Bharatpur EXCELL INFOTECH, ATAL BANDH  BHARATPUR   9024636465  285  Active  14-05-2015    158.54  5.50 
924 2115 Jeetendra Singh 2014-Vakrangee-Bharatpur G.P- SOGAR, KUMHER  BHARATPUR   8385919296  230  Active  14-05-2015    .95  315.65 
925 2116 Tahir Mohammad 2014-Vakrangee-Bharatpur V&P- LADMAKA, PAHARI  BHARATPUR   9828554381  119  Active  14-05-2015    2216.97  162.61 
926 2117 Akbar Hussain 2014-Vakrangee-Bharatpur G.P. JOTRI PEEPAL, PAHARI  BHARATPUR   8094740181  110  Active  14-05-2015    6.33  11.64 
927 2119 Lala Ram 2014-Vakrangee-Bharatpur Pahari,Nagar Bharatpur   9828116381  484  Active  14-05-2015    969.41  0.93 
928 2121 Ram Lal Yogi 2014-Vakrangee-Bharatpur Atal Sewa Kendra,Mudiya Nagar,Bharatpur undefined  9784028801  803  Active  14-05-2015    537.64  206.88 
929 2122 Sahoon Khan 2014-Vakrangee-Bharatpur Atal Sewa Kendra Dunawal,Nagar Bharatpur   9166731376  1200  Active  14-05-2015    8054.14  38.50 
930 2124 Prabhu Dayal Sharma 2014-Vakrangee-Bharatpur Atal Sewa Kendra,Gangawak Nagar,Bharatpur undefined  9828574840  730  Active  14-05-2015    .52  2087.06 
931 2125 Banti 2014-Vakrangee-Bharatpur Atal Sewa Kendra,Semla Kalan Nagar,Bharatpur undefined  9772722836  551  Active  14-05-2015    .6  127.95 
932 2126 Ashutosh Soni 2014-Vakrangee-Bharatpur Sarafa Gali,Near Laxman Mandir Bharatpur   8963877343  23  Active  14-05-2015    3762.6  0.00 
933 2127 Sandeep Kumar 2014-Vakrangee-Bharatpur Atal Sewa Kendra Dharsoni,Weir Bharatpur   9667356195  8104  Active  14-05-2015    693.7  9.57 
934 2128 Bhoora Singh 2014-Vakrangee-Bharatpur Atal Sewa Kendra,Santrook Kumher,Bharatpur undefined  7823891881  3346  Active  14-05-2015    259.19  76.52 
935 2141 Kapil Kumar 2014-Vakrangee-Bharatpur Near Govt.Hospital,Jurhera Kaman,Bharatpur undefined  9649753604  10  Active  18-05-2015    2303.94  19.13 
936 2142 Khalid Hussain 2014-Vakrangee-Bharatpur Kherli Manna,Kaman Bharatpur   9649262885  442  Active  18-05-2015    6876.69  0.00 
937 2143 Pavan Kumar 2014-Vakrangee-Bharatpur ATAL SEVA KENDRA, COLLACTRATE CAMPUS  BHARATPUR   9252067407  78  Active  18-05-2015    .83  43.61 
938 2187 Lakhan Lal 2014-Vakrangee-Bharatpur Village Post Pathena Bhusawar    9694417929  216  Active  29-05-2015    .15  541.15 
939 2191 Natware Singh 2014-Vakrangee-Bharatpur Atal Seva Kendra Dantloathi Deeg Bharatpur    7692587542  15  Active  29-05-2015    40.34  57.39 
940 2192 Mahish Singh 2014-Vakrangee-Bharatpur Thok Aeldiya Village Sinsini Deeg Bharatpur    9001454392  401  Active  29-05-2015    .68  10.97 
941 2193 Mukhiya Rahul Singh 2014-Vakrangee-Bharatpur Village Gaonri Jurhara Kaman Bharatpur    9783867474  10  Active  29-05-2015    277.31  5.19 
942 2194 Mahesh Chand 2014-Vakrangee-Bharatpur Chiksana,Bharatpur    9772870267  515  Active  29-05-2015    327.31  0.00 
943 2196 Dharmendra Singh 2014-Vakrangee-Bharatpur Jagner Road, Gram Panchayat Roopwas, Bharatpur    9610076382  1929  Active  29-05-2015    2.57  197.97 
944 2197 Arif 2014-Vakrangee-Bharatpur Sihawali,Nagar Bharatpur   9660444440  Active  29-05-2015    1073.25  0.00 
945 2198 Nirottam Lal 2014-Vakrangee-Bharatpur Atal Seva Kendra Khohara,Bayana Bharatpur   9887290212  Active  29-05-2015    11.84  772.19 
946 2199 Lokendra Singh 2014-Vakrangee-Bharatpur Atal Seva Kendra Kherli Khdasiya,Bayana Bharatpur   8426988602  Active  29-05-2015    .05  1396.79 
947 2200 Sunil Kumar Sharma 2014-Vakrangee-Bharatpur Atal Seva Kendra Mahamadpura,Bayana Bharatpur   8739891029  Active  29-05-2015    34.46  1.66 
948 2202 Meshpal Singh 2014-Vakrangee-Bharatpur Atal Sewa Kendra, Gram Pachayat Jatmasi Tehsil Roopwas, Bharatpur   9887900738  134  Active  29-05-2015    1.96  153.04 
949 2203 Savitri 2014-Vakrangee-Bharatpur Atal Seva Kendra Kuchawati    9784727929  65  Active  29-05-2015    3338.57  392.17 
950 2204 Bhim Singh 2014-Vakrangee-Bharatpur Mahamadpura,Bayana Bharatpur   9982460404  96  Active  29-05-2015    110.65  0.00 
951 2205 Suresh Chand 2014-Vakrangee-Bharatpur Atal Seva Kendra Beerampura,Bayana Bharatpur   7891896889  1238  Active  29-05-2015    15  683.69 
952 2206 Rajkumar 2014-Vakrangee-Bharatpur New Sanatan Dharm Market,Laxman Mandir Bharatpur   8504089564  141  Active  29-05-2015    102.2  0.00 
953 2207 Subhash 2014-Vakrangee-Bharatpur Dayana Ka Bas,Khaohri Nagar,Bharatpur undefined  9983881096  16  Active  29-05-2015    6.46  1351.72 
954 2208 Hemraj 2014-Vakrangee-Bharatpur Naunera,Kaman Bharatpur   9785406406  Active  29-05-2015    142.33  0.00 
955 2209 Jahira Khan 2014-Vakrangee-Bharatpur Jhantli,Sihawali Nagar,Bharatpur undefined  9610081206  80  Active  29-05-2015    47.4  73.27 
956 2210 Sonveer Singh 2014-Vakrangee-Bharatpur ATAL SEVA KENDRA, SUNARI  SEWAR, BHARATPUR undefined  9784564061  34  Active  29-05-2015    91.22  0.00 
957 2211 Satyendra Singh 2014-Vakrangee-Bharatpur Atal Sewa Kendra, Vinuan, GP- Vinuan, Roopwas    9950151650  9554  Active  29-05-2015    30964.11  2960.43 
958 2212 Shiv Kumar 2014-Vakrangee-Bharatpur Thesil Mode Deeg Road Kumher Bharatpur    9887515858  240  Active  29-05-2015    .48  0.00 
959 2213 Kartar Singh 2014-Vakrangee-Bharatpur Atal Seva Kendra Panhori Deeg Bharatpur    9610341318  Active  29-05-2015    498.45  0.00 
960 2215 Kailashee Ram 2014-Vakrangee-Bharatpur Atal Sewa Kendra Madoli,Roopwas Bharatpur   9694385142  239  Active  29-05-2015    33.42  239.13 
961 2218 Bachhu Singh 2014-Vakrangee-Bharatpur Jeewad,Weir Bharatpur   9785835210  760  Active  29-05-2015    4668.91  286.96 
962 2219 Sushil Goyal 2014-Vakrangee-Bharatpur Jatmasi Road B-24, Tehsil- Roopwas, Dist- Bharatpur     9001409635  10  Active  29-05-2015    32.34  52.22 
963 2220 Ashvani 2014-Vakrangee-Bharatpur Infront Of Sewar Thana,Bharatpur    9982184314  Active  29-05-2015    0.00 
964 2249 Sanjay Singh Shastri 2014-Vakrangee-Bharatpur Naunera,Kaman Bharatpur   9828101520  1394  Active  03-06-2015    27.57  251.07 
965 2250 Harish 2014-Vakrangee-Bharatpur Naogaon,Kaman Bharatpur   9950025358  107  Active  04-06-2015    541.86  302.22 
966 2266 Satish Chand 2014-Vakrangee-Bharatpur G.P. MADARPUR, SEWAR  BHARATPUR   9460076110  126  Active  15-06-2015    .57  324.94 
967 2268 Devendra Singh 2014-Vakrangee-Bharatpur Baroli Chhar,Nadbai Bharatpur   8440088543  1424  Active  15-06-2015    145.37  263.76 
968 2269 Mahendra Kumar 2014-Vakrangee-Bharatpur Mathura Gate,Gulal Kund Bharatpur   9351868666  7135  Active  15-06-2015    27.54  779.33 
969 2270 Bhoopendra Kumar 2014-Vakrangee-Bharatpur Atal Seva Kendra Pasopa    9166080776  Active  15-06-2015    10527.24  0.00 
970 2271 Yogesh Kumar 2014-Vakrangee-Bharatpur Near Hospital Janoothar Deeg Bharatpur    8104013819  841  Active  15-06-2015    .18  584.19 
971 2272 Ankit Chahar 2014-Vakrangee-Bharatpur Near Manav Bharati School Anah Gate Bharatpur    9782561418  68  Active  15-06-2015    525.73  17.42 
972 2273 Nirbhay Singh 2014-Vakrangee-Bharatpur Near N S Deshwal School Sawer Bharatpur    9929000140  Active  15-06-2015    .07  195.61 
973 2275 Sateesh Chand 2014-Vakrangee-Bharatpur Sahana,Roopwas Bharatpur   9799457542  6634  Active  16-06-2015    .71  2338.69 
974 2276 Gyan Deep Nagar 2014-Vakrangee-Bharatpur Atal Seva Kendra Khoh    8741950051